DAL147 KATL-SCEL
Flight info
| Callsign | DAL147 |
|---|---|
| Flight time | 8h 19m |
| Altitude | 37000 |
| Route | SMLTZ3 WALET DCT ZPLEN Q79 VAULT/N0495F360 Q79 MCLAW Y442 FUNDI/N0493F370 UM335 LEPON/N0497F360 DCT ARNAL/N0493F380 DCT AROVI DCT REKAD DCT ANRAX DCT ARNEL/N0489F390 UM542 AKTUK DCT MIPAS DCT ISREN DCT TOPIX DCT ILMAR DCT IREMI UL302 ASEPU/N0482F410 UL302 TOY DCT EMBAL DCT SIMOK SIMOK7B |
| Aircraft | A359/H-SDE2E3GHIJ3J4J5LM1ORWXY/LB1D1 |
Departure
| Time | 2026-05-04 17:42 |
|---|---|
| Airport | Hartsfield Jackson Atlanta International Airport (KATL) |
Arrival
| Time | 2026-05-05 02:01 |
|---|---|
| Airport | Comodoro Arturo Merino Benítez International Airport (SCEL) |
| Time | Latitude | Longitude | Altitude | Speed | Heading |
|---|---|---|---|---|---|
| 2026-05-04 16:44 | 33.63735 | -84.42045 | 1042 ft | 0 kts | 91° |
| 2026-05-04 17:08 | 33.63734 | -84.42013 | 1047 ft | 5 kts | 91° |
| 2026-05-04 17:08 | 33.63735 | -84.42041 | 1042 ft | 4 kts | 90° |
| 2026-05-04 17:08 | 33.63735 | -84.42074 | 1043 ft | 4 kts | 90° |
| 2026-05-04 17:09 | 33.63735 | -84.42106 | 1044 ft | 4 kts | 90° |
| 2026-05-04 17:09 | 33.63736 | -84.42133 | 1044 ft | 4 kts | 108° |
| 2026-05-04 17:09 | 33.63749 | -84.42156 | 1044 ft | 4 kts | 160° |
| 2026-05-04 17:10 | 33.63758 | -84.42161 | 1043 ft | 0 kts | 180° |
| 2026-05-04 17:37 | 33.63738 | -84.42161 | 1042 ft | 7 kts | 180° |
| 2026-05-04 17:38 | 33.63681 | -84.42154 | 1042 ft | 8 kts | 159° |
| 2026-05-04 17:38 | 33.63657 | -84.42100 | 1042 ft | 8 kts | 94° |
| 2026-05-04 17:38 | 33.63656 | -84.42026 | 1042 ft | 10 kts | 90° |
| 2026-05-04 17:38 | 33.63656 | -84.41929 | 1041 ft | 13 kts | 90° |
| 2026-05-04 17:39 | 33.63656 | -84.41659 | 1041 ft | 21 kts | 90° |
| 2026-05-04 17:39 | 33.63656 | -84.41483 | 1041 ft | 21 kts | 90° |
| 2026-05-04 17:39 | 33.63656 | -84.41307 | 1041 ft | 21 kts | 90° |
| 2026-05-04 17:40 | 33.63657 | -84.41131 | 1041 ft | 21 kts | 90° |
| 2026-05-04 17:40 | 33.63656 | -84.40958 | 1041 ft | 21 kts | 90° |
| 2026-05-04 17:40 | 33.63649 | -84.40788 | 1042 ft | 19 kts | 109° |
| 2026-05-04 17:40 | 33.63570 | -84.40744 | 1042 ft | 12 kts | 180° |
| 2026-05-04 17:41 | 33.63489 | -84.40751 | 1042 ft | 10 kts | 200° |
| 2026-05-04 17:41 | 33.63473 | -84.40803 | 1042 ft | 8 kts | 266° |
| 2026-05-04 17:41 | 33.63472 | -84.41026 | 1041 ft | 54 kts | 270° |
| 2026-05-04 17:41 | 33.63473 | -84.41689 | 1040 ft | 105 kts | 270° |
| 2026-05-04 17:42 | 33.63472 | -84.42757 | 1042 ft | 149 kts | 270° |
| 2026-05-04 17:42 | 33.63467 | -84.44123 | 1247 ft | 170 kts | 271° |
| 2026-05-04 17:42 | 33.63451 | -84.45545 | 1749 ft | 171 kts | 269° |
| 2026-05-04 17:42 | 33.63427 | -84.46982 | 2294 ft | 173 kts | 267° |
| 2026-05-04 17:43 | 33.63423 | -84.48470 | 2570 ft | 184 kts | 270° |
| 2026-05-04 17:43 | 33.63453 | -84.50065 | 2871 ft | 197 kts | 271° |
| 2026-05-04 17:43 | 33.63499 | -84.51763 | 3203 ft | 211 kts | 271° |
| 2026-05-04 17:43 | 33.63522 | -84.53571 | 3522 ft | 223 kts | 270° |
| 2026-05-04 17:44 | 33.63540 | -84.55502 | 3768 ft | 239 kts | 270° |
| 2026-05-04 17:44 | 33.63548 | -84.56857 | 3969 ft | 249 kts | 270° |
| 2026-05-04 17:44 | 33.63558 | -84.58977 | 4396 ft | 257 kts | 270° |
| 2026-05-04 17:44 | 33.63552 | -84.61139 | 4948 ft | 262 kts | 269° |
| 2026-05-04 17:45 | 33.63476 | -84.64056 | 5772 ft | 265 kts | 259° |
| 2026-05-04 17:45 | 33.63083 | -84.65440 | 6178 ft | 264 kts | 239° |
| 2026-05-04 17:45 | 33.61793 | -84.67059 | 6668 ft | 271 kts | 209° |
| 2026-05-04 17:45 | 33.60139 | -84.68075 | 7311 ft | 270 kts | 207° |
| 2026-05-04 17:46 | 33.58471 | -84.69139 | 7988 ft | 271 kts | 205° |
| 2026-05-04 17:46 | 33.56639 | -84.69610 | 8634 ft | 273 kts | 176° |
| 2026-05-04 17:46 | 33.54795 | -84.69122 | 9368 ft | 271 kts | 167° |
| 2026-05-04 17:46 | 33.52932 | -84.68695 | 10000 ft | 274 kts | 172° |
| 2026-05-04 17:47 | 33.51012 | -84.68389 | 10511 ft | 282 kts | 174° |
| 2026-05-04 17:47 | 33.49045 | -84.68132 | 11023 ft | 287 kts | 174° |
| 2026-05-04 17:47 | 33.47044 | -84.67850 | 11623 ft | 290 kts | 174° |
| 2026-05-04 17:47 | 33.45063 | -84.67530 | 12218 ft | 294 kts | 174° |
| 2026-05-04 17:48 | 33.42995 | -84.67135 | 12722 ft | 301 kts | 167° |
| 2026-05-04 17:48 | 33.41111 | -84.65980 | 13161 ft | 314 kts | 142° |
| 2026-05-04 17:48 | 33.39544 | -84.64088 | 13346 ft | 332 kts | 134° |
| 2026-05-04 17:48 | 33.37931 | -84.62037 | 13614 ft | 346 kts | 136° |
| 2026-05-04 17:49 | 33.36207 | -84.59963 | 13889 ft | 359 kts | 136° |
| 2026-05-04 17:49 | 33.34395 | -84.57816 | 14134 ft | 372 kts | 137° |
| 2026-05-04 17:49 | 33.32525 | -84.55607 | 14375 ft | 384 kts | 137° |
| 2026-05-04 17:49 | 33.30591 | -84.53323 | 14609 ft | 395 kts | 137° |
| 2026-05-04 17:50 | 33.28602 | -84.50979 | 14836 ft | 406 kts | 137° |
| 2026-05-04 17:50 | 33.26566 | -84.48579 | 15149 ft | 413 kts | 137° |
| 2026-05-04 17:50 | 33.24508 | -84.46156 | 15582 ft | 418 kts | 137° |
| 2026-05-04 17:50 | 33.22430 | -84.43711 | 16013 ft | 422 kts | 137° |
| 2026-05-04 17:51 | 33.20330 | -84.41243 | 16460 ft | 425 kts | 137° |
| 2026-05-04 17:51 | 33.18207 | -84.38749 | 16952 ft | 429 kts | 137° |
| 2026-05-04 17:51 | 33.16096 | -84.36270 | 17432 ft | 432 kts | 137° |
| 2026-05-04 17:51 | 33.13943 | -84.33746 | 17889 ft | 436 kts | 137° |
| 2026-05-04 17:52 | 33.11771 | -84.31200 | 18366 ft | 439 kts | 137° |
| 2026-05-04 17:52 | 33.09579 | -84.28633 | 18774 ft | 443 kts | 137° |
| 2026-05-04 17:52 | 33.07364 | -84.26042 | 19102 ft | 448 kts | 137° |
| 2026-05-04 17:52 | 33.05126 | -84.23424 | 19499 ft | 452 kts | 137° |
| 2026-05-04 17:53 | 33.02873 | -84.20795 | 19948 ft | 454 kts | 138° |
| 2026-05-04 17:53 | 33.00474 | -84.18348 | 20385 ft | 454 kts | 147° |
| 2026-05-04 17:53 | 32.97744 | -84.16463 | 20804 ft | 453 kts | 159° |
| 2026-05-04 17:53 | 32.94830 | -84.15131 | 21229 ft | 454 kts | 164° |
| 2026-05-04 17:54 | 32.91832 | -84.13907 | 21654 ft | 457 kts | 165° |
| 2026-05-04 17:54 | 32.88805 | -84.12678 | 22094 ft | 460 kts | 165° |
| 2026-05-04 17:54 | 32.85761 | -84.11437 | 22546 ft | 464 kts | 165° |
| 2026-05-04 17:54 | 32.82695 | -84.10183 | 22959 ft | 467 kts | 165° |
| 2026-05-04 17:55 | 32.79615 | -84.08921 | 23394 ft | 471 kts | 165° |
| 2026-05-04 17:55 | 32.76493 | -84.07641 | 23798 ft | 474 kts | 165° |
| 2026-05-04 17:55 | 32.73358 | -84.06355 | 24153 ft | 477 kts | 165° |
| 2026-05-04 17:55 | 32.70224 | -84.05069 | 24576 ft | 478 kts | 165° |
| 2026-05-04 17:56 | 32.67102 | -84.03790 | 24954 ft | 481 kts | 165° |
| 2026-05-04 17:56 | 32.63929 | -84.02491 | 25315 ft | 484 kts | 165° |
| 2026-05-04 17:56 | 32.60735 | -84.01183 | 25701 ft | 486 kts | 165° |
| 2026-05-04 17:56 | 32.57528 | -83.99872 | 26065 ft | 489 kts | 165° |
| 2026-05-04 17:57 | 32.54303 | -83.98555 | 26429 ft | 491 kts | 165° |
| 2026-05-04 17:57 | 32.51069 | -83.97234 | 26800 ft | 493 kts | 165° |
| 2026-05-04 17:57 | 32.47807 | -83.95903 | 27169 ft | 496 kts | 166° |
| 2026-05-04 17:57 | 32.44535 | -83.94568 | 27481 ft | 498 kts | 166° |
| 2026-05-04 17:58 | 32.41247 | -83.93229 | 27825 ft | 501 kts | 166° |
| 2026-05-04 17:58 | 32.37945 | -83.91885 | 28160 ft | 503 kts | 166° |
| 2026-05-04 17:58 | 32.34620 | -83.90547 | 28486 ft | 505 kts | 167° |
| 2026-05-04 17:58 | 32.31263 | -83.89293 | 28819 ft | 506 kts | 168° |
| 2026-05-04 17:59 | 32.27880 | -83.88094 | 29135 ft | 507 kts | 169° |
| 2026-05-04 17:59 | 32.24529 | -83.86928 | 29417 ft | 510 kts | 169° |
| 2026-05-04 17:59 | 32.17692 | -83.84537 | 30033 ft | 513 kts | 169° |
| 2026-05-04 18:00 | 32.14267 | -83.83324 | 30347 ft | 513 kts | 169° |
| 2026-05-04 18:00 | 32.10849 | -83.82107 | 30646 ft | 514 kts | 169° |
| 2026-05-04 18:00 | 32.07424 | -83.80884 | 30935 ft | 514 kts | 170° |
| 2026-05-04 18:00 | 32.03992 | -83.79657 | 31225 ft | 514 kts | 170° |
| 2026-05-04 18:01 | 32.00565 | -83.78433 | 31513 ft | 514 kts | 170° |
| 2026-05-04 18:01 | 31.97173 | -83.77222 | 31807 ft | 514 kts | 170° |
| 2026-05-04 18:01 | 31.93752 | -83.76002 | 32089 ft | 514 kts | 170° |
| 2026-05-04 18:02 | 31.86890 | -83.73561 | 32513 ft | 516 kts | 171° |
| 2026-05-04 18:02 | 31.83446 | -83.72338 | 32773 ft | 516 kts | 171° |
| 2026-05-04 18:02 | 31.80003 | -83.71116 | 33015 ft | 516 kts | 171° |
| 2026-05-04 18:02 | 31.76572 | -83.69898 | 33264 ft | 516 kts | 171° |
| 2026-05-04 18:03 | 31.73124 | -83.68676 | 33525 ft | 516 kts | 172° |
| 2026-05-04 18:03 | 31.69672 | -83.67453 | 33769 ft | 517 kts | 172° |
| 2026-05-04 18:03 | 31.66233 | -83.66216 | 34004 ft | 518 kts | 171° |
| 2026-05-04 18:03 | 31.62798 | -83.64916 | 34197 ft | 518 kts | 170° |
| 2026-05-04 18:04 | 31.59386 | -83.63587 | 34510 ft | 515 kts | 170° |
| 2026-05-04 18:04 | 31.55986 | -83.62255 | 34721 ft | 515 kts | 170° |
| 2026-05-04 18:04 | 31.49167 | -83.59605 | 35074 ft | 515 kts | 170° |
| 2026-05-04 18:05 | 31.45805 | -83.58310 | 35246 ft | 515 kts | 170° |
| 2026-05-04 18:05 | 31.42396 | -83.57003 | 35420 ft | 514 kts | 170° |
| 2026-05-04 18:05 | 31.38993 | -83.55702 | 35585 ft | 514 kts | 170° |
| 2026-05-04 18:05 | 31.35595 | -83.54405 | 35702 ft | 514 kts | 170° |
| 2026-05-04 18:06 | 31.28811 | -83.51818 | 36119 ft | 511 kts | 170° |
| 2026-05-04 18:06 | 31.25427 | -83.50529 | 36251 ft | 511 kts | 170° |
| 2026-05-04 18:06 | 31.22033 | -83.49238 | 36372 ft | 511 kts | 170° |
| 2026-05-04 18:07 | 31.18640 | -83.47948 | 36497 ft | 512 kts | 170° |
| 2026-05-04 18:07 | 31.15289 | -83.46674 | 36625 ft | 512 kts | 170° |
| 2026-05-04 18:07 | 31.11901 | -83.45387 | 36741 ft | 512 kts | 170° |
| 2026-05-04 18:07 | 31.08511 | -83.44100 | 36875 ft | 511 kts | 170° |
| 2026-05-04 18:08 | 31.01751 | -83.41536 | 37077 ft | 511 kts | 170° |
| 2026-05-04 18:08 | 30.94948 | -83.38964 | 37106 ft | 516 kts | 170° |
| 2026-05-04 18:09 | 30.81247 | -83.33787 | 37121 ft | 517 kts | 170° |
| 2026-05-04 18:10 | 30.74447 | -83.31222 | 37112 ft | 516 kts | 169° |
| 2026-05-04 18:10 | 30.67701 | -83.28136 | 37119 ft | 524 kts | 163° |
| 2026-05-04 18:11 | 30.61055 | -83.24606 | 37120 ft | 525 kts | 162° |
| 2026-05-04 18:11 | 30.54480 | -83.21042 | 37120 ft | 525 kts | 162° |
| 2026-05-04 18:12 | 30.47857 | -83.17463 | 37121 ft | 525 kts | 162° |
| 2026-05-04 18:12 | 30.41228 | -83.13901 | 37120 ft | 524 kts | 162° |
| 2026-05-04 18:13 | 30.34602 | -83.10352 | 37123 ft | 523 kts | 162° |
| 2026-05-04 18:14 | 30.24731 | -83.05076 | 37119 ft | 523 kts | 162° |
| 2026-05-04 18:14 | 30.18108 | -83.01542 | 37116 ft | 523 kts | 162° |
| 2026-05-04 18:15 | 30.04933 | -82.94526 | 37118 ft | 522 kts | 162° |
| 2026-05-04 18:16 | 29.98329 | -82.91018 | 37105 ft | 522 kts | 162° |
| 2026-05-04 18:16 | 29.91731 | -82.87518 | 37057 ft | 522 kts | 162° |
| 2026-05-04 18:17 | 29.81852 | -82.82292 | 37108 ft | 520 kts | 162° |
| 2026-05-04 18:18 | 29.72027 | -82.77095 | 37102 ft | 519 kts | 162° |
| 2026-05-04 18:18 | 29.65458 | -82.73629 | 37103 ft | 519 kts | 162° |
| 2026-05-04 18:19 | 29.55619 | -82.68449 | 37102 ft | 517 kts | 162° |
| 2026-05-04 18:19 | 29.49086 | -82.65018 | 37102 ft | 520 kts | 162° |
| 2026-05-04 18:20 | 29.42471 | -82.61550 | 37100 ft | 524 kts | 162° |
| 2026-05-04 18:20 | 29.35813 | -82.58062 | 37094 ft | 527 kts | 162° |
| 2026-05-04 18:21 | 29.29130 | -82.54566 | 37102 ft | 527 kts | 162° |
| 2026-05-04 18:21 | 29.22276 | -82.52164 | 37096 ft | 512 kts | 176° |
| 2026-05-04 18:22 | 29.15259 | -82.50758 | 37094 ft | 509 kts | 178° |
| 2026-05-04 18:22 | 29.08287 | -82.49529 | 37100 ft | 509 kts | 178° |
| 2026-05-04 18:23 | 29.01281 | -82.48297 | 37101 ft | 509 kts | 178° |
| 2026-05-04 18:23 | 28.94275 | -82.47040 | 37099 ft | 509 kts | 178° |
| 2026-05-04 18:24 | 28.87270 | -82.45775 | 37092 ft | 508 kts | 178° |
| 2026-05-04 18:24 | 28.80324 | -82.44519 | 37100 ft | 508 kts | 178° |
| 2026-05-04 18:25 | 28.73330 | -82.43258 | 37074 ft | 508 kts | 178° |
| 2026-05-04 18:25 | 28.66333 | -82.41998 | 37096 ft | 507 kts | 178° |
| 2026-05-04 18:26 | 28.59405 | -82.40753 | 37099 ft | 507 kts | 178° |
| 2026-05-04 18:26 | 28.52419 | -82.39500 | 37098 ft | 507 kts | 178° |
| 2026-05-04 18:27 | 28.45452 | -82.38249 | 37100 ft | 506 kts | 178° |
| 2026-05-04 18:27 | 28.38532 | -82.37009 | 37098 ft | 505 kts | 178° |
| 2026-05-04 18:28 | 28.31589 | -82.35767 | 37094 ft | 504 kts | 178° |
| 2026-05-04 18:28 | 28.24666 | -82.34532 | 37095 ft | 504 kts | 178° |
| 2026-05-04 18:29 | 28.17727 | -82.33296 | 37094 ft | 504 kts | 178° |
| 2026-05-04 18:29 | 28.11965 | -82.32269 | 37072 ft | 503 kts | 179° |
| 2026-05-04 18:30 | 28.01622 | -82.30110 | 37077 ft | 509 kts | 172° |
| 2026-05-04 18:31 | 27.94844 | -82.27893 | 37076 ft | 511 kts | 171° |
| 2026-05-04 18:31 | 27.88036 | -82.25547 | 37081 ft | 511 kts | 171° |
| 2026-05-04 18:32 | 27.81233 | -82.23197 | 37066 ft | 510 kts | 171° |
| 2026-05-04 18:32 | 27.74434 | -82.20866 | 37072 ft | 510 kts | 171° |
| 2026-05-04 18:33 | 27.67641 | -82.18549 | 37068 ft | 509 kts | 171° |
| 2026-05-04 18:33 | 27.60846 | -82.16236 | 37063 ft | 509 kts | 171° |
| 2026-05-04 18:34 | 27.54095 | -82.13941 | 37064 ft | 509 kts | 171° |
| 2026-05-04 18:34 | 27.47309 | -82.11636 | 37064 ft | 509 kts | 171° |
| 2026-05-04 18:35 | 27.40520 | -82.09333 | 37066 ft | 509 kts | 171° |
| 2026-05-04 18:35 | 27.33720 | -82.07029 | 37064 ft | 509 kts | 171° |
| 2026-05-04 18:36 | 27.26936 | -82.04733 | 37065 ft | 509 kts | 171° |
| 2026-05-04 18:36 | 27.20142 | -82.02437 | 37062 ft | 509 kts | 171° |
| 2026-05-04 18:37 | 27.13348 | -82.00144 | 37065 ft | 509 kts | 171° |
| 2026-05-04 18:37 | 27.06586 | -81.97676 | 37067 ft | 516 kts | 164° |
| 2026-05-04 18:38 | 27.00029 | -81.94283 | 37061 ft | 519 kts | 161° |
| 2026-05-04 18:38 | 26.93537 | -81.90713 | 37031 ft | 520 kts | 161° |
| 2026-05-04 18:39 | 26.87077 | -81.87137 | 37062 ft | 521 kts | 161° |
| 2026-05-04 18:39 | 26.80567 | -81.83557 | 37062 ft | 521 kts | 161° |
| 2026-05-04 18:40 | 26.74056 | -81.79993 | 37055 ft | 521 kts | 161° |
| 2026-05-04 18:40 | 26.67533 | -81.76432 | 37038 ft | 521 kts | 161° |
| 2026-05-04 18:41 | 26.61021 | -81.72880 | 37036 ft | 520 kts | 161° |
| 2026-05-04 18:41 | 26.54503 | -81.69330 | 37046 ft | 522 kts | 161° |
| 2026-05-04 18:42 | 26.47968 | -81.65775 | 37044 ft | 522 kts | 161° |
| 2026-05-04 18:42 | 26.41435 | -81.62224 | 37040 ft | 521 kts | 161° |
| 2026-05-04 18:43 | 26.34954 | -81.58706 | 37037 ft | 521 kts | 161° |
| 2026-05-04 18:43 | 26.28432 | -81.55171 | 37029 ft | 521 kts | 161° |
| 2026-05-04 18:44 | 26.21904 | -81.51638 | 37034 ft | 521 kts | 161° |
| 2026-05-04 18:44 | 26.15378 | -81.48110 | 37032 ft | 521 kts | 161° |
| 2026-05-04 18:45 | 26.08736 | -81.45002 | 37032 ft | 512 kts | 169° |
| 2026-05-04 18:45 | 26.01949 | -81.42610 | 37026 ft | 511 kts | 171° |
| 2026-05-04 18:46 | 25.95143 | -81.40340 | 37032 ft | 511 kts | 171° |
| 2026-05-04 18:46 | 25.88317 | -81.38076 | 37033 ft | 512 kts | 171° |
| 2026-05-04 18:47 | 25.81535 | -81.35811 | 37014 ft | 512 kts | 171° |
| 2026-05-04 18:47 | 25.74709 | -81.33525 | 37013 ft | 512 kts | 171° |
| 2026-05-04 18:48 | 25.67881 | -81.31240 | 36999 ft | 512 kts | 171° |
| 2026-05-04 18:48 | 25.61043 | -81.28955 | 37018 ft | 513 kts | 171° |
| 2026-05-04 18:49 | 25.54206 | -81.26673 | 37018 ft | 512 kts | 171° |
| 2026-05-04 18:49 | 25.47420 | -81.24411 | 37015 ft | 512 kts | 171° |
| 2026-05-04 18:50 | 25.40589 | -81.22138 | 37015 ft | 512 kts | 171° |
| 2026-05-04 18:50 | 25.33762 | -81.19869 | 37007 ft | 512 kts | 171° |
| 2026-05-04 18:51 | 25.26926 | -81.17600 | 37009 ft | 513 kts | 171° |
| 2026-05-04 18:51 | 25.20074 | -81.15327 | 37010 ft | 513 kts | 171° |
| 2026-05-04 18:52 | 25.13236 | -81.13061 | 37010 ft | 513 kts | 171° |
| 2026-05-04 18:52 | 25.06403 | -81.10800 | 37011 ft | 513 kts | 171° |
| 2026-05-04 18:53 | 24.99600 | -81.08551 | 37024 ft | 513 kts | 172° |
| 2026-05-04 18:53 | 24.92756 | -81.06292 | 37028 ft | 513 kts | 172° |
| 2026-05-04 18:54 | 24.85915 | -81.04037 | 37032 ft | 513 kts | 172° |
| 2026-05-04 18:54 | 24.79068 | -81.01847 | 37034 ft | 508 kts | 175° |
| 2026-05-04 18:54 | 24.75615 | -81.01235 | 37038 ft | 497 kts | 184° |
| 2026-05-04 18:55 | 24.72183 | -81.01114 | 37018 ft | 491 kts | 188° |
| 2026-05-04 18:55 | 24.62013 | -81.01397 | 37034 ft | 488 kts | 191° |
| 2026-05-04 18:56 | 24.55218 | -81.01689 | 37018 ft | 488 kts | 190° |
| 2026-05-04 18:56 | 24.48383 | -81.01730 | 37018 ft | 492 kts | 187° |
| 2026-05-04 18:57 | 24.41573 | -81.01603 | 37018 ft | 492 kts | 187° |
| 2026-05-04 18:57 | 24.34714 | -81.01496 | 37015 ft | 492 kts | 188° |
| 2026-05-04 18:58 | 24.27871 | -81.01426 | 37015 ft | 491 kts | 188° |
| 2026-05-04 18:58 | 24.21017 | -81.01370 | 37015 ft | 491 kts | 188° |
| 2026-05-04 18:59 | 24.14172 | -81.01315 | 37014 ft | 491 kts | 188° |
| 2026-05-04 18:59 | 24.07328 | -81.01259 | 37017 ft | 491 kts | 188° |
| 2026-05-04 19:00 | 24.00536 | -81.01202 | 37019 ft | 491 kts | 188° |
| 2026-05-04 19:00 | 23.93678 | -81.01036 | 37015 ft | 494 kts | 186° |
| 2026-05-04 19:01 | 23.86804 | -81.00696 | 37011 ft | 494 kts | 186° |
| 2026-05-04 19:01 | 23.79921 | -81.00359 | 36979 ft | 494 kts | 186° |
| 2026-05-04 19:02 | 23.73051 | -81.00055 | 37014 ft | 494 kts | 186° |
| 2026-05-04 19:02 | 23.66216 | -80.99767 | 37016 ft | 494 kts | 186° |
| 2026-05-04 19:03 | 23.59338 | -80.99479 | 37013 ft | 494 kts | 186° |
| 2026-05-04 19:03 | 23.52461 | -80.99191 | 37013 ft | 494 kts | 186° |
| 2026-05-04 19:04 | 23.45585 | -80.98902 | 36999 ft | 494 kts | 186° |
| 2026-05-04 19:04 | 23.38711 | -80.98614 | 37015 ft | 494 kts | 186° |
| 2026-05-04 19:05 | 23.31864 | -80.98326 | 37006 ft | 494 kts | 186° |
| 2026-05-04 19:05 | 23.24988 | -80.98038 | 37005 ft | 494 kts | 186° |
| 2026-05-04 19:06 | 23.18108 | -80.97749 | 37005 ft | 494 kts | 186° |
| 2026-05-04 19:06 | 23.11232 | -80.97459 | 37008 ft | 496 kts | 185° |
| 2026-05-04 19:07 | 23.04308 | -80.97169 | 37003 ft | 498 kts | 185° |
| 2026-05-04 19:07 | 22.97371 | -80.96877 | 37003 ft | 498 kts | 185° |
| 2026-05-04 19:08 | 22.90488 | -80.96603 | 37004 ft | 498 kts | 185° |
| 2026-05-04 19:08 | 22.83558 | -80.96332 | 36972 ft | 498 kts | 186° |
| 2026-05-04 19:09 | 22.76623 | -80.96062 | 37002 ft | 500 kts | 186° |
| 2026-05-04 19:09 | 22.69647 | -80.95791 | 36999 ft | 501 kts | 186° |
| 2026-05-04 19:10 | 22.62721 | -80.95519 | 37003 ft | 501 kts | 186° |
| 2026-05-04 19:10 | 22.55744 | -80.95245 | 37003 ft | 501 kts | 186° |
| 2026-05-04 19:11 | 22.48771 | -80.94973 | 36999 ft | 502 kts | 186° |
| 2026-05-04 19:11 | 22.42954 | -80.94747 | 37002 ft | 503 kts | 186° |
| 2026-05-04 19:12 | 22.31306 | -80.94292 | 37003 ft | 503 kts | 186° |
| 2026-05-04 19:13 | 22.25471 | -80.94065 | 37003 ft | 503 kts | 186° |
| 2026-05-04 19:13 | 22.18473 | -80.93792 | 36997 ft | 503 kts | 186° |
| 2026-05-04 19:14 | 22.11461 | -80.93521 | 37001 ft | 504 kts | 186° |
| 2026-05-04 19:14 | 22.04434 | -80.93248 | 37010 ft | 505 kts | 186° |
| 2026-05-04 19:15 | 21.97413 | -80.92976 | 37010 ft | 505 kts | 186° |
| 2026-05-04 19:15 | 21.89250 | -80.92659 | 37010 ft | 505 kts | 186° |
| 2026-05-04 19:16 | 21.83375 | -80.92432 | 37009 ft | 505 kts | 185° |
| 2026-05-04 19:16 | 21.76341 | -80.92160 | 37012 ft | 505 kts | 185° |
| 2026-05-04 19:17 | 21.69361 | -80.91890 | 37012 ft | 505 kts | 185° |
| 2026-05-04 19:17 | 21.62323 | -80.91618 | 37012 ft | 505 kts | 185° |
| 2026-05-04 19:18 | 21.55287 | -80.91347 | 37016 ft | 505 kts | 185° |
| 2026-05-04 19:18 | 21.48312 | -80.91081 | 37011 ft | 504 kts | 185° |
| 2026-05-04 19:19 | 21.41287 | -80.90809 | 37012 ft | 504 kts | 185° |
| 2026-05-04 19:19 | 21.34273 | -80.90535 | 37013 ft | 504 kts | 185° |
| 2026-05-04 19:20 | 21.27249 | -80.90262 | 37012 ft | 504 kts | 185° |
| 2026-05-04 19:20 | 21.20274 | -80.89992 | 37011 ft | 504 kts | 185° |
| 2026-05-04 19:21 | 21.13260 | -80.89721 | 37011 ft | 504 kts | 185° |
| 2026-05-04 19:21 | 21.06243 | -80.89451 | 37008 ft | 504 kts | 185° |
| 2026-05-04 19:22 | 20.99230 | -80.89160 | 37008 ft | 505 kts | 185° |
| 2026-05-04 19:22 | 20.92210 | -80.88840 | 37009 ft | 505 kts | 185° |
| 2026-05-04 19:23 | 20.85188 | -80.88524 | 37008 ft | 505 kts | 184° |
| 2026-05-04 19:23 | 20.78165 | -80.88214 | 37015 ft | 505 kts | 184° |
| 2026-05-04 19:24 | 20.71154 | -80.87906 | 37007 ft | 504 kts | 184° |
| 2026-05-04 19:24 | 20.64128 | -80.87599 | 37001 ft | 504 kts | 184° |
| 2026-05-04 19:25 | 20.57163 | -80.87295 | 37009 ft | 504 kts | 184° |
| 2026-05-04 19:25 | 20.50139 | -80.86989 | 37009 ft | 505 kts | 184° |
| 2026-05-04 19:26 | 20.43096 | -80.86682 | 37005 ft | 506 kts | 184° |
| 2026-05-04 19:26 | 20.36064 | -80.86375 | 37007 ft | 505 kts | 184° |
| 2026-05-04 19:27 | 20.29074 | -80.86070 | 37000 ft | 505 kts | 184° |
| 2026-05-04 19:27 | 20.22028 | -80.85764 | 36991 ft | 505 kts | 184° |
| 2026-05-04 19:28 | 20.14990 | -80.85459 | 37003 ft | 506 kts | 184° |
| 2026-05-04 19:28 | 20.07974 | -80.85154 | 37001 ft | 506 kts | 184° |
| 2026-05-04 19:29 | 20.00932 | -80.84849 | 37002 ft | 507 kts | 184° |
| 2026-05-04 19:29 | 19.93875 | -80.84525 | 37003 ft | 507 kts | 184° |
| 2026-05-04 19:30 | 19.86811 | -80.84180 | 36999 ft | 506 kts | 183° |
| 2026-05-04 19:30 | 19.79781 | -80.83836 | 37004 ft | 505 kts | 183° |
| 2026-05-04 19:31 | 19.72798 | -80.83499 | 37007 ft | 505 kts | 183° |
| 2026-05-04 19:31 | 19.65770 | -80.83162 | 37002 ft | 505 kts | 183° |
| 2026-05-04 19:32 | 19.58752 | -80.82827 | 37002 ft | 505 kts | 183° |
| 2026-05-04 19:32 | 19.51724 | -80.82490 | 36999 ft | 504 kts | 183° |
| 2026-05-04 19:33 | 19.44705 | -80.82154 | 37002 ft | 504 kts | 183° |
| 2026-05-04 19:33 | 19.37751 | -80.81822 | 36998 ft | 504 kts | 183° |
| 2026-05-04 19:34 | 19.30741 | -80.81487 | 36994 ft | 504 kts | 183° |
| 2026-05-04 19:34 | 19.23735 | -80.81153 | 36996 ft | 504 kts | 183° |
| 2026-05-04 19:35 | 19.16729 | -80.80819 | 36991 ft | 503 kts | 183° |
| 2026-05-04 19:35 | 19.09726 | -80.80485 | 37003 ft | 503 kts | 183° |
| 2026-05-04 19:36 | 19.02777 | -80.80155 | 36999 ft | 503 kts | 183° |
| 2026-05-04 19:36 | 18.95772 | -80.79822 | 36986 ft | 503 kts | 183° |
| 2026-05-04 19:37 | 18.88767 | -80.79489 | 36992 ft | 503 kts | 182° |
| 2026-05-04 19:37 | 18.81769 | -80.79157 | 36997 ft | 503 kts | 182° |
| 2026-05-04 19:38 | 18.74816 | -80.78827 | 36995 ft | 503 kts | 182° |
| 2026-05-04 19:38 | 18.67809 | -80.78495 | 36992 ft | 503 kts | 182° |
| 2026-05-04 19:39 | 18.60808 | -80.78163 | 36992 ft | 503 kts | 182° |
| 2026-05-04 19:39 | 18.53801 | -80.77832 | 36982 ft | 503 kts | 182° |
| 2026-05-04 19:40 | 18.46796 | -80.77501 | 36988 ft | 505 kts | 182° |
| 2026-05-04 19:40 | 18.39768 | -80.77169 | 36993 ft | 505 kts | 182° |
| 2026-05-04 19:41 | 18.32744 | -80.76837 | 36986 ft | 505 kts | 182° |
| 2026-05-04 19:41 | 18.25766 | -80.76508 | 36990 ft | 505 kts | 182° |
| 2026-05-04 19:42 | 18.18727 | -80.76177 | 36980 ft | 505 kts | 181° |
| 2026-05-04 19:42 | 18.11705 | -80.75846 | 36986 ft | 504 kts | 181° |
| 2026-05-04 19:43 | 18.04691 | -80.75516 | 36987 ft | 504 kts | 181° |
| 2026-05-04 19:43 | 17.97718 | -80.75188 | 36987 ft | 504 kts | 181° |
| 2026-05-04 19:44 | 17.90698 | -80.74858 | 36989 ft | 504 kts | 181° |
| 2026-05-04 19:44 | 17.83686 | -80.74529 | 36989 ft | 504 kts | 181° |
| 2026-05-04 19:45 | 17.76660 | -80.74200 | 36984 ft | 504 kts | 181° |
| 2026-05-04 19:45 | 17.69641 | -80.73871 | 36982 ft | 504 kts | 181° |
| 2026-05-04 19:46 | 17.62666 | -80.73544 | 36980 ft | 504 kts | 181° |
| 2026-05-04 19:46 | 17.55651 | -80.73216 | 36982 ft | 504 kts | 181° |
| 2026-05-04 19:47 | 17.48640 | -80.72888 | 36983 ft | 504 kts | 181° |
| 2026-05-04 19:47 | 17.41628 | -80.72561 | 36982 ft | 504 kts | 181° |
| 2026-05-04 19:48 | 17.34624 | -80.72233 | 36980 ft | 504 kts | 181° |
| 2026-05-04 19:48 | 17.27613 | -80.71906 | 36980 ft | 504 kts | 181° |
| 2026-05-04 19:49 | 17.20600 | -80.71580 | 36977 ft | 504 kts | 181° |
| 2026-05-04 19:49 | 17.13592 | -80.71254 | 36977 ft | 505 kts | 181° |
| 2026-05-04 19:50 | 17.06589 | -80.70928 | 36977 ft | 506 kts | 181° |
| 2026-05-04 19:50 | 16.99549 | -80.70601 | 36976 ft | 506 kts | 181° |
| 2026-05-04 19:51 | 16.92500 | -80.70273 | 36979 ft | 506 kts | 181° |
| 2026-05-04 19:51 | 16.85456 | -80.69945 | 36978 ft | 506 kts | 181° |
| 2026-05-04 19:52 | 16.78416 | -80.69620 | 36977 ft | 507 kts | 180° |
| 2026-05-04 19:52 | 16.71346 | -80.69292 | 36977 ft | 508 kts | 180° |
| 2026-05-04 19:53 | 16.64323 | -80.68966 | 36967 ft | 508 kts | 180° |
| 2026-05-04 19:53 | 16.57212 | -80.68637 | 36971 ft | 508 kts | 180° |
| 2026-05-04 19:54 | 16.50135 | -80.68309 | 36971 ft | 508 kts | 180° |
| 2026-05-04 19:54 | 16.43125 | -80.67985 | 36970 ft | 507 kts | 180° |
| 2026-05-04 19:55 | 16.36075 | -80.67659 | 36965 ft | 507 kts | 180° |
| 2026-05-04 19:55 | 16.29022 | -80.67334 | 36966 ft | 507 kts | 180° |
| 2026-05-04 19:56 | 16.23172 | -80.67064 | 36966 ft | 507 kts | 180° |
| 2026-05-04 19:56 | 16.16121 | -80.66739 | 36968 ft | 507 kts | 180° |
| 2026-05-04 19:57 | 16.09072 | -80.66414 | 36967 ft | 506 kts | 180° |
| 2026-05-04 19:57 | 16.02020 | -80.66089 | 36966 ft | 506 kts | 180° |
| 2026-05-04 19:58 | 15.94974 | -80.65765 | 36963 ft | 506 kts | 180° |
| 2026-05-04 19:58 | 15.87988 | -80.65444 | 36963 ft | 506 kts | 180° |
| 2026-05-04 19:59 | 15.80944 | -80.65121 | 36963 ft | 506 kts | 180° |
| 2026-05-04 19:59 | 15.73903 | -80.64797 | 36963 ft | 505 kts | 180° |
| 2026-05-04 20:00 | 15.66876 | -80.64475 | 36961 ft | 505 kts | 180° |
| 2026-05-04 20:00 | 15.59851 | -80.64153 | 36963 ft | 505 kts | 180° |
| 2026-05-04 20:01 | 15.52870 | -80.63833 | 36960 ft | 505 kts | 180° |
| 2026-05-04 20:01 | 15.45839 | -80.63511 | 36957 ft | 505 kts | 180° |
| 2026-05-04 20:02 | 15.38810 | -80.63190 | 36957 ft | 504 kts | 180° |
| 2026-05-04 20:02 | 15.31842 | -80.62871 | 36958 ft | 503 kts | 180° |
| 2026-05-04 20:03 | 15.24818 | -80.62550 | 36958 ft | 503 kts | 180° |
| 2026-05-04 20:03 | 15.17807 | -80.62230 | 36957 ft | 503 kts | 180° |
| 2026-05-04 20:04 | 15.10808 | -80.61911 | 36952 ft | 503 kts | 180° |
| 2026-05-04 20:04 | 15.03841 | -80.61594 | 36952 ft | 503 kts | 180° |
| 2026-05-04 20:05 | 14.96846 | -80.61343 | 36953 ft | 502 kts | 182° |
| 2026-05-04 20:05 | 14.89869 | -80.61650 | 36952 ft | 501 kts | 186° |
| 2026-05-04 20:06 | 14.82902 | -80.62093 | 36947 ft | 501 kts | 185° |
| 2026-05-04 20:06 | 14.75929 | -80.62463 | 36947 ft | 501 kts | 185° |
| 2026-05-04 20:07 | 14.68948 | -80.62777 | 36946 ft | 502 kts | 184° |
| 2026-05-04 20:07 | 14.62021 | -80.63073 | 36947 ft | 502 kts | 184° |
| 2026-05-04 20:08 | 14.55038 | -80.63371 | 36944 ft | 502 kts | 184° |
| 2026-05-04 20:08 | 14.48046 | -80.63673 | 36944 ft | 502 kts | 184° |
| 2026-05-04 20:09 | 14.41064 | -80.63975 | 36945 ft | 502 kts | 184° |
| 2026-05-04 20:09 | 14.34124 | -80.64276 | 36944 ft | 502 kts | 184° |
| 2026-05-04 20:10 | 14.27132 | -80.64578 | 36942 ft | 502 kts | 184° |
| 2026-05-04 20:10 | 14.20138 | -80.64881 | 36941 ft | 502 kts | 184° |
| 2026-05-04 20:11 | 14.13202 | -80.65180 | 36936 ft | 502 kts | 184° |
| 2026-05-04 20:11 | 14.06212 | -80.65482 | 36936 ft | 502 kts | 184° |
| 2026-05-04 20:12 | 13.99228 | -80.65784 | 36936 ft | 502 kts | 184° |
| 2026-05-04 20:12 | 13.92244 | -80.66085 | 36936 ft | 502 kts | 184° |
| 2026-05-04 20:13 | 13.85305 | -80.66384 | 36933 ft | 502 kts | 184° |
| 2026-05-04 20:13 | 13.78314 | -80.66685 | 36933 ft | 502 kts | 184° |
| 2026-05-04 20:14 | 13.71338 | -80.66985 | 36932 ft | 502 kts | 184° |
| 2026-05-04 20:14 | 13.64360 | -80.67285 | 36933 ft | 501 kts | 184° |
| 2026-05-04 20:15 | 13.57379 | -80.67586 | 36931 ft | 501 kts | 184° |
| 2026-05-04 20:15 | 13.50408 | -80.67885 | 36933 ft | 501 kts | 184° |
| 2026-05-04 20:16 | 13.43481 | -80.68182 | 36930 ft | 501 kts | 184° |
| 2026-05-04 20:16 | 13.36516 | -80.68481 | 36931 ft | 501 kts | 184° |
| 2026-05-04 20:17 | 13.29544 | -80.68781 | 36927 ft | 500 kts | 184° |
| 2026-05-04 20:17 | 13.22578 | -80.69079 | 36928 ft | 499 kts | 184° |
| 2026-05-04 20:18 | 13.15637 | -80.69376 | 36925 ft | 499 kts | 184° |
| 2026-05-04 20:18 | 13.08735 | -80.69672 | 36926 ft | 499 kts | 184° |
| 2026-05-04 20:19 | 13.01794 | -80.69969 | 36921 ft | 499 kts | 184° |
| 2026-05-04 20:19 | 12.94843 | -80.70266 | 36924 ft | 499 kts | 184° |
| 2026-05-04 20:20 | 12.87904 | -80.70563 | 36921 ft | 498 kts | 184° |
| 2026-05-04 20:20 | 12.81016 | -80.70857 | 36923 ft | 498 kts | 184° |
| 2026-05-04 20:21 | 12.74094 | -80.71153 | 36921 ft | 498 kts | 184° |
| 2026-05-04 20:21 | 12.63705 | -80.71596 | 36919 ft | 498 kts | 184° |
| 2026-05-04 20:22 | 12.56777 | -80.71892 | 36917 ft | 497 kts | 183° |
| 2026-05-04 20:22 | 12.49865 | -80.72186 | 36917 ft | 497 kts | 183° |
| 2026-05-04 20:23 | 12.42948 | -80.72481 | 36911 ft | 497 kts | 183° |
| 2026-05-04 20:23 | 12.36034 | -80.72775 | 36912 ft | 497 kts | 183° |
| 2026-05-04 20:24 | 12.29158 | -80.73068 | 36908 ft | 497 kts | 183° |
| 2026-05-04 20:24 | 12.22238 | -80.73362 | 36908 ft | 497 kts | 183° |
| 2026-05-04 20:25 | 12.15316 | -80.73657 | 36908 ft | 497 kts | 183° |
| 2026-05-04 20:25 | 12.08405 | -80.73950 | 36908 ft | 497 kts | 183° |
| 2026-05-04 20:26 | 12.01532 | -80.74241 | 36902 ft | 497 kts | 183° |
| 2026-05-04 20:26 | 11.94612 | -80.74535 | 36902 ft | 497 kts | 183° |
| 2026-05-04 20:27 | 11.87706 | -80.74828 | 36905 ft | 497 kts | 182° |
| 2026-05-04 20:27 | 11.80836 | -80.75120 | 36904 ft | 496 kts | 182° |
| 2026-05-04 20:28 | 11.73926 | -80.75412 | 36902 ft | 496 kts | 182° |
| 2026-05-04 20:28 | 11.67026 | -80.75704 | 36902 ft | 496 kts | 182° |
| 2026-05-04 20:29 | 11.60119 | -80.75997 | 36900 ft | 496 kts | 182° |
| 2026-05-04 20:29 | 11.53223 | -80.76289 | 36900 ft | 496 kts | 182° |
| 2026-05-04 20:30 | 11.46342 | -80.76580 | 36903 ft | 497 kts | 182° |
| 2026-05-04 20:30 | 11.39427 | -80.76872 | 36903 ft | 497 kts | 182° |
| 2026-05-04 20:31 | 11.32516 | -80.77164 | 36900 ft | 497 kts | 182° |
| 2026-05-04 20:31 | 11.25605 | -80.77456 | 36900 ft | 497 kts | 182° |
| 2026-05-04 20:32 | 11.18730 | -80.77746 | 36897 ft | 497 kts | 182° |
| 2026-05-04 20:32 | 11.11810 | -80.78038 | 36894 ft | 497 kts | 182° |
| 2026-05-04 20:33 | 11.04890 | -80.78330 | 36897 ft | 498 kts | 182° |
| 2026-05-04 20:33 | 10.97950 | -80.78622 | 36898 ft | 498 kts | 182° |
| 2026-05-04 20:34 | 10.91060 | -80.78913 | 36897 ft | 498 kts | 182° |
| 2026-05-04 20:34 | 10.84134 | -80.79204 | 36892 ft | 498 kts | 182° |
| 2026-05-04 20:35 | 10.77210 | -80.79496 | 36895 ft | 498 kts | 182° |
| 2026-05-04 20:35 | 10.70283 | -80.79787 | 36895 ft | 498 kts | 182° |
| 2026-05-04 20:36 | 10.63353 | -80.80079 | 36892 ft | 498 kts | 182° |
| 2026-05-04 20:36 | 10.56462 | -80.80368 | 36889 ft | 498 kts | 182° |
| 2026-05-04 20:37 | 10.49534 | -80.80659 | 36889 ft | 498 kts | 182° |
| 2026-05-04 20:37 | 10.42607 | -80.80950 | 36887 ft | 498 kts | 182° |
| 2026-05-04 20:38 | 10.35685 | -80.81241 | 36887 ft | 500 kts | 182° |
| 2026-05-04 20:38 | 10.28723 | -80.81533 | 36885 ft | 500 kts | 182° |
| 2026-05-04 20:39 | 10.21759 | -80.81825 | 36889 ft | 501 kts | 182° |
| 2026-05-04 20:39 | 10.14803 | -80.82117 | 36890 ft | 501 kts | 182° |
| 2026-05-04 20:40 | 10.07828 | -80.82409 | 36889 ft | 501 kts | 182° |
| 2026-05-04 20:40 | 10.00844 | -80.82702 | 36888 ft | 503 kts | 182° |
| 2026-05-04 20:41 | 9.93879 | -80.82993 | 36890 ft | 503 kts | 182° |
| 2026-05-04 20:41 | 9.86874 | -80.83286 | 36890 ft | 503 kts | 182° |
| 2026-05-04 20:42 | 9.79865 | -80.83580 | 36887 ft | 503 kts | 182° |
| 2026-05-04 20:42 | 9.74044 | -80.83823 | 36886 ft | 503 kts | 182° |
| 2026-05-04 20:43 | 9.65892 | -80.84164 | 36887 ft | 503 kts | 181° |
| 2026-05-04 20:43 | 9.60068 | -80.84408 | 36887 ft | 503 kts | 181° |
| 2026-05-04 20:44 | 9.53071 | -80.84720 | 36883 ft | 503 kts | 182° |
| 2026-05-04 20:44 | 9.46064 | -80.85060 | 36883 ft | 503 kts | 182° |
| 2026-05-04 20:45 | 9.39070 | -80.85400 | 36883 ft | 503 kts | 182° |
| 2026-05-04 20:45 | 9.32078 | -80.85735 | 36885 ft | 503 kts | 182° |
| 2026-05-04 20:46 | 9.25091 | -80.86067 | 36886 ft | 502 kts | 182° |
| 2026-05-04 20:46 | 9.18155 | -80.86397 | 36883 ft | 502 kts | 182° |
| 2026-05-04 20:47 | 9.11160 | -80.86729 | 36887 ft | 502 kts | 182° |
| 2026-05-04 20:47 | 9.04169 | -80.87061 | 36886 ft | 502 kts | 182° |
| 2026-05-04 20:48 | 8.97186 | -80.87393 | 36886 ft | 502 kts | 181° |
| 2026-05-04 20:48 | 8.90198 | -80.87725 | 36893 ft | 502 kts | 181° |
| 2026-05-04 20:49 | 8.83214 | -80.88056 | 36892 ft | 502 kts | 181° |
| 2026-05-04 20:49 | 8.76269 | -80.88386 | 36888 ft | 502 kts | 181° |
| 2026-05-04 20:50 | 8.69279 | -80.88717 | 36889 ft | 502 kts | 181° |
| 2026-05-04 20:50 | 8.62299 | -80.89048 | 36882 ft | 502 kts | 181° |
| 2026-05-04 20:51 | 8.55310 | -80.89380 | 36883 ft | 503 kts | 181° |
| 2026-05-04 20:51 | 8.48344 | -80.89710 | 36870 ft | 503 kts | 181° |
| 2026-05-04 20:52 | 8.41351 | -80.90041 | 36873 ft | 503 kts | 181° |
| 2026-05-04 20:52 | 8.34358 | -80.90371 | 36854 ft | 503 kts | 181° |
| 2026-05-04 20:53 | 8.27350 | -80.90703 | 36852 ft | 503 kts | 181° |
| 2026-05-04 20:53 | 8.20349 | -80.91034 | 36839 ft | 502 kts | 181° |
| 2026-05-04 20:54 | 8.13346 | -80.91366 | 36839 ft | 504 kts | 181° |
| 2026-05-04 20:54 | 8.06374 | -80.91695 | 36833 ft | 505 kts | 182° |
| 2026-05-04 20:55 | 7.99333 | -80.92028 | 36834 ft | 504 kts | 181° |
| 2026-05-04 20:55 | 7.92321 | -80.92359 | 36837 ft | 504 kts | 181° |
| 2026-05-04 20:56 | 7.85303 | -80.92690 | 36837 ft | 505 kts | 181° |
| 2026-05-04 20:56 | 7.78274 | -80.93022 | 36839 ft | 505 kts | 181° |
| 2026-05-04 20:57 | 7.71296 | -80.93351 | 36840 ft | 505 kts | 181° |
| 2026-05-04 20:57 | 7.64274 | -80.93682 | 36840 ft | 505 kts | 181° |
| 2026-05-04 20:58 | 7.57255 | -80.94013 | 36841 ft | 505 kts | 181° |
| 2026-05-04 20:58 | 7.50238 | -80.94344 | 36839 ft | 505 kts | 181° |
| 2026-05-04 20:59 | 7.43194 | -80.94676 | 36841 ft | 508 kts | 181° |
| 2026-05-04 20:59 | 7.36141 | -80.95008 | 36839 ft | 511 kts | 181° |
| 2026-05-04 21:00 | 7.29032 | -80.95343 | 36842 ft | 511 kts | 181° |
| 2026-05-04 21:00 | 7.21927 | -80.95678 | 36843 ft | 510 kts | 181° |
| 2026-05-04 21:01 | 7.14857 | -80.96010 | 36841 ft | 510 kts | 181° |
| 2026-05-04 21:01 | 7.07760 | -80.96344 | 36839 ft | 510 kts | 181° |
| 2026-05-04 21:02 | 7.00657 | -80.96679 | 36841 ft | 510 kts | 181° |
| 2026-05-04 21:02 | 6.93558 | -80.97012 | 36841 ft | 510 kts | 181° |
| 2026-05-04 21:03 | 6.86497 | -80.97344 | 36843 ft | 510 kts | 181° |
| 2026-05-04 21:03 | 6.79400 | -80.97678 | 36843 ft | 510 kts | 181° |
| 2026-05-04 21:04 | 6.72299 | -80.98012 | 36842 ft | 510 kts | 181° |
| 2026-05-04 21:04 | 6.65217 | -80.98345 | 36843 ft | 509 kts | 181° |
| 2026-05-04 21:05 | 6.58134 | -80.98677 | 36843 ft | 509 kts | 181° |
| 2026-05-04 21:05 | 6.51047 | -80.99009 | 36843 ft | 509 kts | 181° |
| 2026-05-04 21:06 | 6.44010 | -80.99339 | 36843 ft | 509 kts | 181° |
| 2026-05-04 21:06 | 6.36925 | -80.99672 | 36847 ft | 508 kts | 181° |
| 2026-05-04 21:07 | 6.29898 | -81.00002 | 36846 ft | 504 kts | 181° |
| 2026-05-04 21:07 | 6.22896 | -81.00330 | 36844 ft | 503 kts | 181° |
| 2026-05-04 21:08 | 6.15889 | -81.00658 | 36847 ft | 503 kts | 181° |
| 2026-05-04 21:08 | 6.08895 | -81.00986 | 36849 ft | 503 kts | 181° |
| 2026-05-04 21:09 | 6.01936 | -81.01312 | 36849 ft | 503 kts | 181° |
| 2026-05-04 21:09 | 5.94927 | -81.01640 | 36851 ft | 505 kts | 181° |
| 2026-05-04 21:10 | 5.87890 | -81.01970 | 36851 ft | 506 kts | 181° |
| 2026-05-04 21:10 | 5.80853 | -81.02299 | 36851 ft | 506 kts | 181° |
| 2026-05-04 21:11 | 5.73819 | -81.02629 | 36851 ft | 506 kts | 181° |
| 2026-05-04 21:11 | 5.66782 | -81.02958 | 36851 ft | 506 kts | 181° |
| 2026-05-04 21:12 | 5.59738 | -81.03288 | 36850 ft | 506 kts | 181° |
| 2026-05-04 21:12 | 5.52725 | -81.03615 | 36853 ft | 507 kts | 181° |
| 2026-05-04 21:13 | 5.45664 | -81.03945 | 36853 ft | 507 kts | 181° |
| 2026-05-04 21:13 | 5.38615 | -81.04275 | 36853 ft | 507 kts | 181° |
| 2026-05-04 21:14 | 5.31568 | -81.04604 | 36856 ft | 507 kts | 181° |
| 2026-05-04 21:14 | 5.24511 | -81.04934 | 36857 ft | 507 kts | 181° |
| 2026-05-04 21:15 | 5.17492 | -81.05262 | 36856 ft | 508 kts | 181° |
| 2026-05-04 21:15 | 5.10399 | -81.05593 | 36856 ft | 508 kts | 181° |
| 2026-05-04 21:16 | 5.03370 | -81.05922 | 36856 ft | 508 kts | 181° |
| 2026-05-04 21:16 | 4.96290 | -81.06252 | 36856 ft | 508 kts | 181° |
| 2026-05-04 21:17 | 4.89210 | -81.06583 | 36856 ft | 508 kts | 181° |
| 2026-05-04 21:17 | 4.82133 | -81.06913 | 36856 ft | 509 kts | 181° |
| 2026-05-04 21:18 | 4.75094 | -81.07242 | 36856 ft | 509 kts | 181° |
| 2026-05-04 21:18 | 4.68016 | -81.07572 | 36856 ft | 509 kts | 181° |
| 2026-05-04 21:19 | 4.60940 | -81.07902 | 36856 ft | 509 kts | 181° |
| 2026-05-04 21:19 | 4.53856 | -81.08233 | 36856 ft | 509 kts | 181° |
| 2026-05-04 21:20 | 4.46777 | -81.08559 | 36856 ft | 508 kts | 181° |
| 2026-05-04 21:20 | 4.39716 | -81.08859 | 36856 ft | 508 kts | 181° |
| 2026-05-04 21:21 | 4.32701 | -81.09155 | 36856 ft | 508 kts | 181° |
| 2026-05-04 21:21 | 4.25635 | -81.09457 | 36856 ft | 508 kts | 181° |
| 2026-05-04 21:22 | 4.18564 | -81.09762 | 36856 ft | 508 kts | 181° |
| 2026-05-04 21:22 | 4.11501 | -81.10067 | 36856 ft | 507 kts | 181° |
| 2026-05-04 21:23 | 4.04448 | -81.10371 | 36856 ft | 507 kts | 181° |
| 2026-05-04 21:23 | 3.97429 | -81.10673 | 36856 ft | 507 kts | 181° |
| 2026-05-04 21:24 | 3.90377 | -81.10977 | 36856 ft | 507 kts | 181° |
| 2026-05-04 21:24 | 3.83328 | -81.11281 | 36856 ft | 507 kts | 181° |
| 2026-05-04 21:25 | 3.76267 | -81.11585 | 36859 ft | 507 kts | 181° |
| 2026-05-04 21:25 | 3.69240 | -81.11888 | 36857 ft | 509 kts | 181° |
| 2026-05-04 21:26 | 3.62149 | -81.12193 | 36856 ft | 510 kts | 181° |
| 2026-05-04 21:26 | 3.55052 | -81.12499 | 36856 ft | 510 kts | 181° |
| 2026-05-04 21:27 | 3.48006 | -81.12802 | 36856 ft | 510 kts | 181° |
| 2026-05-04 21:27 | 3.40917 | -81.13107 | 36856 ft | 510 kts | 181° |
| 2026-05-04 21:28 | 3.33830 | -81.13412 | 36856 ft | 510 kts | 181° |
| 2026-05-04 21:28 | 3.26737 | -81.13717 | 36856 ft | 510 kts | 181° |
| 2026-05-04 21:29 | 3.20836 | -81.13971 | 36856 ft | 510 kts | 181° |
| 2026-05-04 21:29 | 3.12586 | -81.14326 | 36856 ft | 510 kts | 181° |
| 2026-05-04 21:30 | 3.06652 | -81.14581 | 36859 ft | 510 kts | 181° |
| 2026-05-04 21:30 | 2.98411 | -81.14936 | 36861 ft | 510 kts | 180° |
| 2026-05-04 21:31 | 2.88952 | -81.15342 | 36862 ft | 511 kts | 180° |
| 2026-05-04 21:32 | 2.81836 | -81.15648 | 36862 ft | 511 kts | 180° |
| 2026-05-04 21:32 | 2.74761 | -81.15952 | 36862 ft | 511 kts | 180° |
| 2026-05-04 21:33 | 2.67652 | -81.16258 | 36863 ft | 511 kts | 180° |
| 2026-05-04 21:33 | 2.60547 | -81.16563 | 36862 ft | 511 kts | 180° |
| 2026-05-04 21:34 | 2.53469 | -81.16867 | 36860 ft | 512 kts | 180° |
| 2026-05-04 21:34 | 2.46338 | -81.17173 | 36862 ft | 512 kts | 180° |
| 2026-05-04 21:35 | 2.39210 | -81.17480 | 36864 ft | 512 kts | 180° |
| 2026-05-04 21:35 | 2.32127 | -81.17784 | 36864 ft | 512 kts | 180° |
| 2026-05-04 21:36 | 2.25002 | -81.18090 | 36864 ft | 512 kts | 180° |
| 2026-05-04 21:36 | 2.17882 | -81.18396 | 36865 ft | 512 kts | 180° |
| 2026-05-04 21:37 | 2.10760 | -81.18702 | 36864 ft | 512 kts | 180° |
| 2026-05-04 21:37 | 2.03644 | -81.19007 | 36865 ft | 512 kts | 180° |
| 2026-05-04 21:38 | 1.96562 | -81.19311 | 36866 ft | 512 kts | 180° |
| 2026-05-04 21:38 | 1.89436 | -81.19617 | 36867 ft | 512 kts | 180° |
| 2026-05-04 21:39 | 1.82321 | -81.19923 | 36866 ft | 512 kts | 181° |
| 2026-05-04 21:39 | 1.75190 | -81.20229 | 36867 ft | 512 kts | 181° |
| 2026-05-04 21:40 | 1.68112 | -81.20533 | 36867 ft | 512 kts | 181° |
| 2026-05-04 21:40 | 1.60987 | -81.20839 | 36867 ft | 512 kts | 181° |
| 2026-05-04 21:41 | 1.53863 | -81.21145 | 36867 ft | 512 kts | 181° |
| 2026-05-04 21:41 | 1.46748 | -81.21450 | 36867 ft | 512 kts | 180° |
| 2026-05-04 21:42 | 1.39604 | -81.21766 | 36866 ft | 513 kts | 181° |
| 2026-05-04 21:42 | 1.32518 | -81.22278 | 36870 ft | 513 kts | 183° |
| 2026-05-04 21:43 | 1.25394 | -81.22873 | 36872 ft | 513 kts | 183° |
| 2026-05-04 21:43 | 1.18275 | -81.23445 | 36870 ft | 513 kts | 182° |
| 2026-05-04 21:44 | 1.11138 | -81.23994 | 36868 ft | 514 kts | 182° |
| 2026-05-04 21:44 | 1.03992 | -81.24536 | 36873 ft | 515 kts | 182° |
| 2026-05-04 21:45 | 0.96881 | -81.25075 | 36871 ft | 515 kts | 182° |
| 2026-05-04 21:45 | 0.89729 | -81.25619 | 36870 ft | 515 kts | 182° |
| 2026-05-04 21:46 | 0.82580 | -81.26163 | 36870 ft | 515 kts | 182° |
| 2026-05-04 21:46 | 0.75418 | -81.26707 | 36874 ft | 515 kts | 182° |
| 2026-05-04 21:47 | 0.68245 | -81.27253 | 36872 ft | 517 kts | 182° |
| 2026-05-04 21:47 | 0.61113 | -81.27795 | 36873 ft | 517 kts | 182° |
| 2026-05-04 21:48 | 0.53938 | -81.28341 | 36883 ft | 517 kts | 182° |
| 2026-05-04 21:48 | 0.46767 | -81.28887 | 36875 ft | 516 kts | 182° |
| 2026-05-04 21:49 | 0.39608 | -81.29432 | 36876 ft | 516 kts | 182° |
| 2026-05-04 21:49 | 0.32438 | -81.29977 | 36875 ft | 516 kts | 182° |
| 2026-05-04 21:50 | 0.25315 | -81.30519 | 36875 ft | 516 kts | 182° |
| 2026-05-04 21:50 | 0.18147 | -81.31064 | 36876 ft | 516 kts | 182° |
| 2026-05-04 21:51 | 0.10985 | -81.31609 | 36875 ft | 516 kts | 182° |
| 2026-05-04 21:51 | 0.03813 | -81.32154 | 36875 ft | 516 kts | 182° |
| 2026-05-04 21:52 | -0.03350 | -81.32699 | 36873 ft | 516 kts | 182° |
| 2026-05-04 21:52 | -0.10509 | -81.33243 | 36876 ft | 516 kts | 182° |
| 2026-05-04 21:53 | -0.17644 | -81.33786 | 36878 ft | 516 kts | 182° |
| 2026-05-04 21:53 | -0.24813 | -81.34331 | 36878 ft | 516 kts | 182° |
| 2026-05-04 21:54 | -0.31986 | -81.34877 | 36875 ft | 516 kts | 182° |
| 2026-05-04 21:54 | -0.39103 | -81.35418 | 36875 ft | 516 kts | 182° |
| 2026-05-04 21:55 | -0.46264 | -81.35963 | 36875 ft | 516 kts | 182° |
| 2026-05-04 21:55 | -0.53436 | -81.36508 | 36875 ft | 516 kts | 182° |
| 2026-05-04 21:56 | -0.60609 | -81.37054 | 36878 ft | 516 kts | 182° |
| 2026-05-04 21:56 | -0.67774 | -81.37599 | 36878 ft | 516 kts | 182° |
| 2026-05-04 21:57 | -0.74942 | -81.38144 | 36878 ft | 516 kts | 182° |
| 2026-05-04 21:57 | -0.82094 | -81.38688 | 36878 ft | 515 kts | 182° |
| 2026-05-04 21:58 | -0.89243 | -81.39232 | 36878 ft | 515 kts | 182° |
| 2026-05-04 21:58 | -0.96366 | -81.39774 | 36878 ft | 515 kts | 182° |
| 2026-05-04 21:59 | -1.03537 | -81.40320 | 36878 ft | 515 kts | 182° |
| 2026-05-04 21:59 | -1.10639 | -81.40860 | 36878 ft | 515 kts | 182° |
| 2026-05-04 22:00 | -1.17793 | -81.41404 | 36879 ft | 515 kts | 182° |
| 2026-05-04 22:00 | -1.24962 | -81.41950 | 36884 ft | 515 kts | 182° |
| 2026-05-04 22:01 | -1.32120 | -81.42495 | 36883 ft | 515 kts | 182° |
| 2026-05-04 22:01 | -1.39265 | -81.43039 | 36881 ft | 515 kts | 182° |
| 2026-05-04 22:02 | -1.46381 | -81.43581 | 36881 ft | 515 kts | 182° |
| 2026-05-04 22:02 | -1.53533 | -81.44125 | 36882 ft | 515 kts | 182° |
| 2026-05-04 22:03 | -1.60686 | -81.44669 | 36881 ft | 515 kts | 182° |
| 2026-05-04 22:03 | -1.67836 | -81.45213 | 36881 ft | 515 kts | 182° |
| 2026-05-04 22:04 | -1.74946 | -81.45755 | 36884 ft | 515 kts | 182° |
| 2026-05-04 22:04 | -1.82093 | -81.46299 | 36884 ft | 515 kts | 182° |
| 2026-05-04 22:05 | -1.89250 | -81.46844 | 36886 ft | 515 kts | 182° |
| 2026-05-04 22:05 | -1.96404 | -81.47389 | 36881 ft | 515 kts | 182° |
| 2026-05-04 22:06 | -2.03514 | -81.47930 | 36881 ft | 515 kts | 182° |
| 2026-05-04 22:06 | -2.10659 | -81.48474 | 36881 ft | 515 kts | 182° |
| 2026-05-04 22:07 | -2.17772 | -81.49016 | 36878 ft | 515 kts | 182° |
| 2026-05-04 22:07 | -2.24926 | -81.49561 | 36878 ft | 515 kts | 182° |
| 2026-05-04 22:08 | -2.32084 | -81.50106 | 36881 ft | 516 kts | 182° |
| 2026-05-04 22:08 | -2.39246 | -81.50651 | 36881 ft | 516 kts | 182° |
| 2026-05-04 22:09 | -2.46404 | -81.51197 | 36884 ft | 516 kts | 182° |
| 2026-05-04 22:09 | -2.53530 | -81.51740 | 37023 ft | 515 kts | 182° |
| 2026-05-04 22:09 | -2.57098 | -81.52012 | 37147 ft | 514 kts | 182° |
| 2026-05-04 22:10 | -2.60668 | -81.52284 | 37273 ft | 513 kts | 182° |
| 2026-05-04 22:10 | -2.64232 | -81.52556 | 37405 ft | 513 kts | 183° |
| 2026-05-04 22:10 | -2.67785 | -81.52826 | 37531 ft | 512 kts | 183° |
| 2026-05-04 22:10 | -2.71346 | -81.53098 | 37655 ft | 511 kts | 183° |
| 2026-05-04 22:11 | -2.74891 | -81.53368 | 37784 ft | 511 kts | 183° |
| 2026-05-04 22:11 | -2.78434 | -81.53638 | 37915 ft | 510 kts | 183° |
| 2026-05-04 22:11 | -2.81925 | -81.53904 | 38035 ft | 509 kts | 183° |
| 2026-05-04 22:11 | -2.85460 | -81.54174 | 38175 ft | 509 kts | 183° |
| 2026-05-04 22:12 | -2.88987 | -81.54443 | 38305 ft | 508 kts | 184° |
| 2026-05-04 22:12 | -2.92557 | -81.54715 | 38432 ft | 507 kts | 184° |
| 2026-05-04 22:12 | -2.96029 | -81.54980 | 38575 ft | 506 kts | 184° |
| 2026-05-04 22:12 | -2.99587 | -81.55251 | 38676 ft | 506 kts | 184° |
| 2026-05-04 22:13 | -3.03093 | -81.55518 | 38798 ft | 505 kts | 184° |
| 2026-05-04 22:13 | -3.10070 | -81.56050 | 38888 ft | 507 kts | 184° |
| 2026-05-04 22:14 | -3.17152 | -81.56590 | 38889 ft | 510 kts | 184° |
| 2026-05-04 22:14 | -3.24237 | -81.57131 | 38884 ft | 512 kts | 184° |
| 2026-05-04 22:15 | -3.31346 | -81.57674 | 38893 ft | 512 kts | 184° |
| 2026-05-04 22:15 | -3.38413 | -81.58039 | 38893 ft | 511 kts | 177° |
| 2026-05-04 22:16 | -3.45424 | -81.56879 | 38891 ft | 511 kts | 166° |
| 2026-05-04 22:16 | -3.52290 | -81.55017 | 38889 ft | 511 kts | 163° |
| 2026-05-04 22:17 | -3.57972 | -81.53366 | 38889 ft | 512 kts | 163° |
| 2026-05-04 22:17 | -3.64829 | -81.51396 | 38890 ft | 512 kts | 164° |
| 2026-05-04 22:18 | -3.71696 | -81.49459 | 38884 ft | 512 kts | 164° |
| 2026-05-04 22:18 | -3.78550 | -81.47540 | 38887 ft | 511 kts | 164° |
| 2026-05-04 22:19 | -3.85391 | -81.45625 | 38883 ft | 510 kts | 164° |
| 2026-05-04 22:19 | -3.92184 | -81.43723 | 38879 ft | 510 kts | 164° |
| 2026-05-04 22:20 | -3.99014 | -81.41808 | 38886 ft | 509 kts | 164° |
| 2026-05-04 22:20 | -4.05831 | -81.39897 | 38884 ft | 509 kts | 164° |
| 2026-05-04 22:21 | -4.12658 | -81.37983 | 38887 ft | 509 kts | 164° |
| 2026-05-04 22:21 | -4.19503 | -81.36063 | 38889 ft | 510 kts | 164° |
| 2026-05-04 22:22 | -4.26328 | -81.34149 | 38883 ft | 510 kts | 164° |
| 2026-05-04 22:22 | -4.33158 | -81.32232 | 38886 ft | 509 kts | 164° |
| 2026-05-04 22:23 | -4.39983 | -81.30317 | 38888 ft | 510 kts | 164° |
| 2026-05-04 22:23 | -4.46777 | -81.28410 | 38888 ft | 510 kts | 164° |
| 2026-05-04 22:24 | -4.53613 | -81.26491 | 38889 ft | 510 kts | 164° |
| 2026-05-04 22:24 | -4.60291 | -81.24064 | 38885 ft | 511 kts | 155° |
| 2026-05-04 22:25 | -4.66720 | -81.20958 | 38881 ft | 512 kts | 153° |
| 2026-05-04 22:25 | -4.73088 | -81.17753 | 38886 ft | 512 kts | 153° |
| 2026-05-04 22:26 | -4.79427 | -81.14555 | 38893 ft | 513 kts | 153° |
| 2026-05-04 22:26 | -4.85811 | -81.11351 | 38893 ft | 513 kts | 153° |
| 2026-05-04 22:27 | -4.92220 | -81.08142 | 38894 ft | 515 kts | 153° |
| 2026-05-04 22:27 | -4.98629 | -81.04932 | 38892 ft | 514 kts | 153° |
| 2026-05-04 22:28 | -5.05023 | -81.01730 | 38892 ft | 514 kts | 153° |
| 2026-05-04 22:28 | -5.11446 | -80.98513 | 38889 ft | 515 kts | 153° |
| 2026-05-04 22:29 | -5.17819 | -80.95328 | 38897 ft | 514 kts | 153° |
| 2026-05-04 22:29 | -5.24216 | -80.92148 | 38894 ft | 512 kts | 153° |
| 2026-05-04 22:30 | -5.30616 | -80.88968 | 38897 ft | 513 kts | 153° |
| 2026-05-04 22:30 | -5.37023 | -80.85782 | 38898 ft | 515 kts | 153° |
| 2026-05-04 22:31 | -5.43426 | -80.82595 | 38894 ft | 516 kts | 153° |
| 2026-05-04 22:31 | -5.49864 | -80.79390 | 38894 ft | 516 kts | 153° |
| 2026-05-04 22:32 | -5.56295 | -80.76189 | 38898 ft | 515 kts | 153° |
| 2026-05-04 22:32 | -5.62732 | -80.72984 | 38901 ft | 517 kts | 153° |
| 2026-05-04 22:33 | -5.69144 | -80.69791 | 38897 ft | 517 kts | 153° |
| 2026-05-04 22:33 | -5.75594 | -80.66577 | 38904 ft | 517 kts | 153° |
| 2026-05-04 22:34 | -5.82036 | -80.63367 | 38906 ft | 517 kts | 153° |
| 2026-05-04 22:34 | -5.88491 | -80.60150 | 38906 ft | 516 kts | 153° |
| 2026-05-04 22:35 | -5.94927 | -80.56942 | 38901 ft | 517 kts | 153° |
| 2026-05-04 22:35 | -6.01383 | -80.53721 | 38909 ft | 517 kts | 153° |
| 2026-05-04 22:36 | -6.07807 | -80.50516 | 38911 ft | 517 kts | 153° |
| 2026-05-04 22:36 | -6.14265 | -80.47294 | 38908 ft | 517 kts | 153° |
| 2026-05-04 22:37 | -6.20674 | -80.44096 | 38905 ft | 517 kts | 153° |
| 2026-05-04 22:37 | -6.27112 | -80.40882 | 38910 ft | 516 kts | 153° |
| 2026-05-04 22:38 | -6.33553 | -80.37666 | 38913 ft | 517 kts | 153° |
| 2026-05-04 22:38 | -6.40010 | -80.34440 | 38916 ft | 518 kts | 153° |
| 2026-05-04 22:39 | -6.46466 | -80.31214 | 38913 ft | 517 kts | 153° |
| 2026-05-04 22:39 | -6.52918 | -80.27989 | 38918 ft | 517 kts | 153° |
| 2026-05-04 22:40 | -6.59374 | -80.24762 | 38915 ft | 517 kts | 153° |
| 2026-05-04 22:40 | -6.65777 | -80.21560 | 38917 ft | 517 kts | 153° |
| 2026-05-04 22:41 | -6.72227 | -80.18333 | 38923 ft | 517 kts | 153° |
| 2026-05-04 22:41 | -6.78681 | -80.15104 | 38923 ft | 518 kts | 153° |
| 2026-05-04 22:42 | -6.85129 | -80.11876 | 38913 ft | 518 kts | 153° |
| 2026-05-04 22:42 | -6.91596 | -80.08638 | 38924 ft | 518 kts | 153° |
| 2026-05-04 22:43 | -6.98052 | -80.05395 | 38927 ft | 518 kts | 153° |
| 2026-05-04 22:43 | -7.04502 | -80.02154 | 38924 ft | 518 kts | 153° |
| 2026-05-04 22:44 | -7.10954 | -79.98912 | 38925 ft | 518 kts | 153° |
| 2026-05-04 22:44 | -7.17360 | -79.95693 | 38929 ft | 518 kts | 153° |
| 2026-05-04 22:45 | -7.23815 | -79.92449 | 38926 ft | 518 kts | 153° |
| 2026-05-04 22:45 | -7.33503 | -79.87578 | 38921 ft | 518 kts | 153° |
| 2026-05-04 22:46 | -7.39913 | -79.84354 | 38921 ft | 518 kts | 153° |
| 2026-05-04 22:46 | -7.46368 | -79.81106 | 38921 ft | 518 kts | 153° |
| 2026-05-04 22:47 | -7.52828 | -79.77855 | 38924 ft | 520 kts | 153° |
| 2026-05-04 22:47 | -7.59334 | -79.74578 | 38922 ft | 523 kts | 153° |
| 2026-05-04 22:48 | -7.65864 | -79.71289 | 38917 ft | 524 kts | 153° |
| 2026-05-04 22:48 | -7.72400 | -79.67996 | 38912 ft | 524 kts | 153° |
| 2026-05-04 22:49 | -7.78925 | -79.64708 | 38914 ft | 524 kts | 153° |
| 2026-05-04 22:49 | -7.85415 | -79.61435 | 38912 ft | 524 kts | 153° |
| 2026-05-04 22:50 | -7.91951 | -79.58138 | 38920 ft | 524 kts | 153° |
| 2026-05-04 22:50 | -7.98489 | -79.54840 | 38917 ft | 524 kts | 153° |
| 2026-05-04 22:51 | -8.05014 | -79.51547 | 38917 ft | 524 kts | 153° |
| 2026-05-04 22:51 | -8.11508 | -79.48268 | 38919 ft | 524 kts | 153° |
| 2026-05-04 22:52 | -8.18043 | -79.44967 | 38917 ft | 524 kts | 153° |
| 2026-05-04 22:52 | -8.24570 | -79.41669 | 38917 ft | 523 kts | 152° |
| 2026-05-04 22:53 | -8.31062 | -79.38384 | 38919 ft | 521 kts | 152° |
| 2026-05-04 22:53 | -8.37544 | -79.35108 | 38925 ft | 520 kts | 152° |
| 2026-05-04 22:54 | -8.43976 | -79.31855 | 38918 ft | 520 kts | 152° |
| 2026-05-04 22:54 | -8.50452 | -79.28578 | 38925 ft | 520 kts | 152° |
| 2026-05-04 22:55 | -8.56932 | -79.25298 | 38924 ft | 520 kts | 152° |
| 2026-05-04 22:55 | -8.63412 | -79.22017 | 38928 ft | 520 kts | 152° |
| 2026-05-04 22:56 | -8.69862 | -79.18749 | 38933 ft | 520 kts | 152° |
| 2026-05-04 22:56 | -8.76339 | -79.15466 | 38929 ft | 520 kts | 152° |
| 2026-05-04 22:57 | -8.82808 | -79.12187 | 38936 ft | 520 kts | 152° |
| 2026-05-04 22:57 | -8.89282 | -79.08903 | 38938 ft | 520 kts | 152° |
| 2026-05-04 22:58 | -8.95758 | -79.05616 | 38939 ft | 521 kts | 152° |
| 2026-05-04 22:58 | -9.02253 | -79.02319 | 38942 ft | 523 kts | 152° |
| 2026-05-04 22:59 | -9.08777 | -78.99006 | 38941 ft | 523 kts | 152° |
| 2026-05-04 22:59 | -9.15250 | -78.95718 | 38933 ft | 523 kts | 152° |
| 2026-05-04 23:00 | -9.21761 | -78.92409 | 38934 ft | 523 kts | 152° |
| 2026-05-04 23:00 | -9.27174 | -78.89656 | 38939 ft | 523 kts | 152° |
| 2026-05-04 23:01 | -9.33693 | -78.86340 | 38933 ft | 524 kts | 152° |
| 2026-05-04 23:01 | -9.40222 | -78.83018 | 38927 ft | 525 kts | 152° |
| 2026-05-04 23:02 | -9.46751 | -78.79695 | 38928 ft | 525 kts | 152° |
| 2026-05-04 23:02 | -9.53273 | -78.76373 | 38940 ft | 525 kts | 152° |
| 2026-05-04 23:03 | -9.59772 | -78.73062 | 38947 ft | 525 kts | 152° |
| 2026-05-04 23:03 | -9.66302 | -78.69733 | 38971 ft | 525 kts | 153° |
| 2026-05-04 23:04 | -9.72847 | -78.66421 | 38988 ft | 525 kts | 154° |
| 2026-05-04 23:04 | -9.79482 | -78.63324 | 38999 ft | 524 kts | 155° |
| 2026-05-04 23:05 | -9.86129 | -78.60295 | 38999 ft | 524 kts | 155° |
| 2026-05-04 23:05 | -9.92741 | -78.57249 | 38990 ft | 524 kts | 155° |
| 2026-05-04 23:06 | -9.99371 | -78.54167 | 38986 ft | 524 kts | 155° |
| 2026-05-04 23:06 | -10.05994 | -78.51078 | 38985 ft | 524 kts | 155° |
| 2026-05-04 23:07 | -10.12625 | -78.47985 | 38971 ft | 524 kts | 155° |
| 2026-05-04 23:07 | -10.19213 | -78.44911 | 38972 ft | 524 kts | 155° |
| 2026-05-04 23:08 | -10.25840 | -78.41819 | 38963 ft | 524 kts | 155° |
| 2026-05-04 23:08 | -10.32478 | -78.38720 | 38978 ft | 524 kts | 155° |
| 2026-05-04 23:09 | -10.39113 | -78.35621 | 38965 ft | 524 kts | 156° |
| 2026-05-04 23:09 | -10.45685 | -78.32551 | 38966 ft | 523 kts | 156° |
| 2026-05-04 23:10 | -10.52301 | -78.29458 | 38964 ft | 523 kts | 156° |
| 2026-05-04 23:10 | -10.58915 | -78.26364 | 38955 ft | 523 kts | 156° |
| 2026-05-04 23:11 | -10.65542 | -78.23263 | 38965 ft | 523 kts | 155° |
| 2026-05-04 23:11 | -10.72168 | -78.20161 | 38964 ft | 523 kts | 156° |
| 2026-05-04 23:12 | -10.78741 | -78.17082 | 38957 ft | 523 kts | 156° |
| 2026-05-04 23:12 | -10.85361 | -78.13980 | 38965 ft | 524 kts | 156° |
| 2026-05-04 23:13 | -10.91984 | -78.10875 | 38959 ft | 523 kts | 156° |
| 2026-05-04 23:13 | -10.98612 | -78.07766 | 38965 ft | 523 kts | 156° |
| 2026-05-04 23:14 | -11.05189 | -78.04679 | 38962 ft | 523 kts | 156° |
| 2026-05-04 23:14 | -11.11804 | -78.01574 | 38964 ft | 524 kts | 155° |
| 2026-05-04 23:15 | -11.18441 | -77.98456 | 38968 ft | 524 kts | 155° |
| 2026-05-04 23:15 | -11.25083 | -77.95334 | 38951 ft | 524 kts | 155° |
| 2026-05-04 23:16 | -11.31712 | -77.92217 | 38954 ft | 524 kts | 155° |
| 2026-05-04 23:16 | -11.38298 | -77.89118 | 38961 ft | 524 kts | 155° |
| 2026-05-04 23:17 | -11.44920 | -77.86001 | 38966 ft | 524 kts | 155° |
| 2026-05-04 23:17 | -11.51545 | -77.82881 | 38964 ft | 524 kts | 155° |
| 2026-05-04 23:18 | -11.58159 | -77.79765 | 38956 ft | 524 kts | 155° |
| 2026-05-04 23:18 | -11.64783 | -77.76642 | 38943 ft | 524 kts | 155° |
| 2026-05-04 23:19 | -11.71409 | -77.73522 | 38959 ft | 524 kts | 155° |
| 2026-05-04 23:19 | -11.78036 | -77.70391 | 38954 ft | 524 kts | 155° |
| 2026-05-04 23:20 | -11.84669 | -77.67255 | 38952 ft | 525 kts | 155° |
| 2026-05-04 23:20 | -11.91309 | -77.64116 | 38945 ft | 526 kts | 155° |
| 2026-05-04 23:21 | -11.97907 | -77.60997 | 38942 ft | 526 kts | 155° |
| 2026-05-04 23:21 | -12.04555 | -77.57853 | 38939 ft | 525 kts | 155° |
| 2026-05-04 23:22 | -12.11203 | -77.54706 | 38943 ft | 525 kts | 155° |
| 2026-05-04 23:22 | -12.17827 | -77.51569 | 38934 ft | 525 kts | 155° |
| 2026-05-04 23:23 | -12.24458 | -77.48427 | 38938 ft | 525 kts | 155° |
| 2026-05-04 23:23 | -12.31058 | -77.45298 | 38938 ft | 525 kts | 155° |
| 2026-05-04 23:24 | -12.37702 | -77.42147 | 38938 ft | 525 kts | 155° |
| 2026-05-04 23:24 | -12.44336 | -77.38999 | 38942 ft | 525 kts | 155° |
| 2026-05-04 23:25 | -12.50968 | -77.35849 | 38943 ft | 526 kts | 156° |
| 2026-05-04 23:25 | -12.57626 | -77.32685 | 38944 ft | 527 kts | 156° |
| 2026-05-04 23:26 | -12.64293 | -77.29516 | 38956 ft | 527 kts | 156° |
| 2026-05-04 23:26 | -12.70945 | -77.26351 | 38949 ft | 527 kts | 156° |
| 2026-05-04 23:27 | -12.77607 | -77.23181 | 38960 ft | 527 kts | 156° |
| 2026-05-04 23:27 | -12.84213 | -77.20034 | 38959 ft | 527 kts | 156° |
| 2026-05-04 23:28 | -12.90861 | -77.16866 | 38971 ft | 527 kts | 156° |
| 2026-05-04 23:28 | -12.97525 | -77.13689 | 38962 ft | 528 kts | 156° |
| 2026-05-04 23:29 | -13.04187 | -77.10511 | 38960 ft | 528 kts | 156° |
| 2026-05-04 23:29 | -13.10847 | -77.07331 | 38976 ft | 528 kts | 156° |
| 2026-05-04 23:30 | -13.17512 | -77.04147 | 38976 ft | 528 kts | 156° |
| 2026-05-04 23:30 | -13.24139 | -77.00980 | 38967 ft | 529 kts | 156° |
| 2026-05-04 23:31 | -13.30828 | -76.97782 | 38970 ft | 529 kts | 156° |
| 2026-05-04 23:31 | -13.37502 | -76.94588 | 38970 ft | 529 kts | 156° |
| 2026-05-04 23:32 | -13.44184 | -76.91388 | 38957 ft | 529 kts | 156° |
| 2026-05-04 23:32 | -13.50818 | -76.88210 | 38959 ft | 529 kts | 156° |
| 2026-05-04 23:33 | -13.57512 | -76.85000 | 38962 ft | 530 kts | 156° |
| 2026-05-04 23:33 | -13.64198 | -76.81793 | 38968 ft | 530 kts | 156° |
| 2026-05-04 23:34 | -13.70887 | -76.78582 | 38965 ft | 529 kts | 156° |
| 2026-05-04 23:34 | -13.77524 | -76.75394 | 38968 ft | 529 kts | 156° |
| 2026-05-04 23:35 | -13.84199 | -76.72186 | 38968 ft | 529 kts | 156° |
| 2026-05-04 23:35 | -13.90874 | -76.68975 | 38961 ft | 530 kts | 157° |
| 2026-05-04 23:36 | -13.97569 | -76.65754 | 38963 ft | 530 kts | 157° |
| 2026-05-04 23:36 | -14.04250 | -76.62537 | 38961 ft | 530 kts | 157° |
| 2026-05-04 23:37 | -14.10941 | -76.59313 | 38973 ft | 530 kts | 157° |
| 2026-05-04 23:37 | -14.17624 | -76.56090 | 38966 ft | 530 kts | 157° |
| 2026-05-04 23:38 | -14.24272 | -76.52883 | 38966 ft | 531 kts | 157° |
| 2026-05-04 23:38 | -14.31205 | -76.50341 | 38972 ft | 528 kts | 167° |
| 2026-05-04 23:39 | -14.38291 | -76.48344 | 38967 ft | 527 kts | 168° |
| 2026-05-04 23:39 | -14.45396 | -76.46435 | 38973 ft | 527 kts | 168° |
| 2026-05-04 23:40 | -14.52507 | -76.44522 | 38971 ft | 527 kts | 168° |
| 2026-05-04 23:40 | -14.59610 | -76.42594 | 38982 ft | 527 kts | 168° |
| 2026-05-04 23:41 | -14.66665 | -76.40672 | 38980 ft | 527 kts | 168° |
| 2026-05-04 23:41 | -14.73770 | -76.38733 | 38970 ft | 527 kts | 168° |
| 2026-05-04 23:42 | -14.80866 | -76.36797 | 38981 ft | 527 kts | 168° |
| 2026-05-04 23:42 | -14.87964 | -76.34859 | 38980 ft | 527 kts | 168° |
| 2026-05-04 23:43 | -14.95067 | -76.32918 | 38974 ft | 527 kts | 168° |
| 2026-05-04 23:43 | -15.02160 | -76.30978 | 38972 ft | 527 kts | 168° |
| 2026-05-04 23:44 | -15.09203 | -76.29051 | 38986 ft | 527 kts | 168° |
| 2026-05-04 23:44 | -15.16308 | -76.27106 | 38983 ft | 527 kts | 168° |
| 2026-05-04 23:45 | -15.22206 | -76.25490 | 38983 ft | 527 kts | 168° |
| 2026-05-04 23:45 | -15.29309 | -76.23543 | 38982 ft | 528 kts | 168° |
| 2026-05-04 23:46 | -15.36441 | -76.21587 | 38990 ft | 529 kts | 168° |
| 2026-05-04 23:46 | -15.43561 | -76.19632 | 38996 ft | 529 kts | 168° |
| 2026-05-04 23:47 | -15.50640 | -76.17687 | 38980 ft | 529 kts | 168° |
| 2026-05-04 23:47 | -15.57747 | -76.15733 | 38987 ft | 529 kts | 168° |
| 2026-05-04 23:48 | -15.64883 | -76.13770 | 38993 ft | 529 kts | 168° |
| 2026-05-04 23:48 | -15.71998 | -76.11810 | 38984 ft | 528 kts | 168° |
| 2026-05-04 23:49 | -15.79068 | -76.09862 | 38979 ft | 528 kts | 168° |
| 2026-05-04 23:49 | -15.86190 | -76.07899 | 38980 ft | 528 kts | 168° |
| 2026-05-04 23:50 | -15.93301 | -76.05937 | 38990 ft | 529 kts | 168° |
| 2026-05-04 23:50 | -16.00423 | -76.03971 | 38990 ft | 529 kts | 168° |
| 2026-05-04 23:51 | -16.07553 | -76.02001 | 38991 ft | 530 kts | 168° |
| 2026-05-04 23:51 | -16.14641 | -76.00040 | 38989 ft | 530 kts | 168° |
| 2026-05-04 23:52 | -16.21772 | -75.98067 | 38988 ft | 530 kts | 168° |
| 2026-05-04 23:52 | -16.28903 | -75.96092 | 38989 ft | 531 kts | 168° |
| 2026-05-04 23:53 | -16.36054 | -75.94110 | 38994 ft | 531 kts | 168° |
| 2026-05-04 23:53 | -16.43163 | -75.92138 | 38993 ft | 531 kts | 168° |
| 2026-05-04 23:54 | -16.50314 | -75.90153 | 38991 ft | 531 kts | 168° |
| 2026-05-04 23:54 | -16.57480 | -75.88163 | 38996 ft | 532 kts | 168° |
| 2026-05-04 23:55 | -16.64633 | -75.86174 | 38994 ft | 532 kts | 168° |
| 2026-05-04 23:56 | -16.75368 | -75.83187 | 39001 ft | 532 kts | 168° |
| 2026-05-04 23:56 | -16.82488 | -75.81204 | 38998 ft | 532 kts | 168° |
| 2026-05-04 23:57 | -16.89665 | -75.79203 | 39006 ft | 532 kts | 168° |
| 2026-05-04 23:57 | -16.96778 | -75.77219 | 39001 ft | 532 kts | 168° |
| 2026-05-04 23:58 | -17.03952 | -75.75215 | 39001 ft | 531 kts | 168° |
| 2026-05-04 23:58 | -17.11046 | -75.73233 | 39001 ft | 531 kts | 168° |
| 2026-05-04 23:59 | -17.18179 | -75.71239 | 39001 ft | 531 kts | 168° |
| 2026-05-04 23:59 | -17.25322 | -75.69240 | 39006 ft | 531 kts | 168° |
| 2026-05-05 00:00 | -17.32472 | -75.67237 | 39004 ft | 532 kts | 168° |
| 2026-05-05 00:00 | -17.39622 | -75.65233 | 39007 ft | 532 kts | 168° |
| 2026-05-05 00:01 | -17.46775 | -75.63226 | 39009 ft | 532 kts | 168° |
| 2026-05-05 00:01 | -17.53929 | -75.61218 | 39007 ft | 532 kts | 168° |
| 2026-05-05 00:02 | -17.61042 | -75.59219 | 39007 ft | 532 kts | 168° |
| 2026-05-05 00:02 | -17.68214 | -75.57202 | 39009 ft | 533 kts | 168° |
| 2026-05-05 00:03 | -17.75388 | -75.55183 | 39009 ft | 533 kts | 168° |
| 2026-05-05 00:03 | -17.82566 | -75.53161 | 39009 ft | 533 kts | 168° |
| 2026-05-05 00:04 | -17.89699 | -75.51150 | 39021 ft | 533 kts | 168° |
| 2026-05-05 00:04 | -17.96883 | -75.49123 | 39010 ft | 534 kts | 168° |
| 2026-05-05 00:05 | -18.04071 | -75.47093 | 39010 ft | 534 kts | 168° |
| 2026-05-05 00:05 | -18.11214 | -75.45074 | 39011 ft | 534 kts | 168° |
| 2026-05-05 00:06 | -18.18402 | -75.43041 | 39009 ft | 534 kts | 168° |
| 2026-05-05 00:06 | -18.25590 | -75.41005 | 39009 ft | 533 kts | 168° |
| 2026-05-05 00:07 | -18.32758 | -75.38974 | 39011 ft | 533 kts | 168° |
| 2026-05-05 00:07 | -18.39862 | -75.36930 | 39009 ft | 533 kts | 167° |
| 2026-05-05 00:08 | -18.46997 | -75.34773 | 39009 ft | 533 kts | 167° |
| 2026-05-05 00:08 | -18.54133 | -75.32602 | 39019 ft | 533 kts | 167° |
| 2026-05-05 00:09 | -18.61279 | -75.30444 | 39011 ft | 534 kts | 167° |
| 2026-05-05 00:09 | -18.68435 | -75.28289 | 39011 ft | 534 kts | 167° |
| 2026-05-05 00:10 | -18.75548 | -75.26147 | 39011 ft | 534 kts | 167° |
| 2026-05-05 00:10 | -18.82697 | -75.23991 | 39011 ft | 534 kts | 167° |
| 2026-05-05 00:11 | -18.89863 | -75.21829 | 39013 ft | 535 kts | 167° |
| 2026-05-05 00:11 | -18.97032 | -75.19663 | 39010 ft | 535 kts | 167° |
| 2026-05-05 00:12 | -19.04158 | -75.17509 | 39010 ft | 535 kts | 167° |
| 2026-05-05 00:12 | -19.11340 | -75.15335 | 39009 ft | 535 kts | 167° |
| 2026-05-05 00:13 | -19.18508 | -75.13164 | 39013 ft | 535 kts | 167° |
| 2026-05-05 00:13 | -19.25639 | -75.11002 | 39010 ft | 537 kts | 167° |
| 2026-05-05 00:14 | -19.32837 | -75.08818 | 39009 ft | 538 kts | 167° |
| 2026-05-05 00:14 | -19.40045 | -75.06629 | 39011 ft | 538 kts | 167° |
| 2026-05-05 00:15 | -19.47195 | -75.04454 | 39010 ft | 536 kts | 167° |
| 2026-05-05 00:15 | -19.54383 | -75.02267 | 39015 ft | 536 kts | 167° |
| 2026-05-05 00:16 | -19.61561 | -75.00081 | 39012 ft | 537 kts | 167° |
| 2026-05-05 00:16 | -19.68752 | -74.97890 | 39012 ft | 537 kts | 167° |
| 2026-05-05 00:17 | -19.75949 | -74.95693 | 39012 ft | 537 kts | 167° |
| 2026-05-05 00:17 | -19.83085 | -74.93513 | 39026 ft | 537 kts | 167° |
| 2026-05-05 00:18 | -19.90292 | -74.91311 | 39012 ft | 539 kts | 167° |
| 2026-05-05 00:18 | -19.97511 | -74.89102 | 39015 ft | 540 kts | 167° |
| 2026-05-05 00:19 | -20.04695 | -74.86901 | 39015 ft | 540 kts | 167° |
| 2026-05-05 00:19 | -20.11911 | -74.84688 | 39015 ft | 539 kts | 167° |
| 2026-05-05 00:20 | -20.19144 | -74.82469 | 39015 ft | 541 kts | 168° |
| 2026-05-05 00:20 | -20.26390 | -74.80244 | 39018 ft | 542 kts | 168° |
| 2026-05-05 00:21 | -20.33644 | -74.78013 | 39018 ft | 542 kts | 168° |
| 2026-05-05 00:21 | -20.40894 | -74.75781 | 39015 ft | 542 kts | 168° |
| 2026-05-05 00:22 | -20.48099 | -74.73561 | 39018 ft | 542 kts | 168° |
| 2026-05-05 00:22 | -20.55367 | -74.71320 | 39015 ft | 543 kts | 168° |
| 2026-05-05 00:23 | -20.62629 | -74.69079 | 39016 ft | 543 kts | 168° |
| 2026-05-05 00:23 | -20.69903 | -74.66831 | 39015 ft | 544 kts | 168° |
| 2026-05-05 00:24 | -20.77130 | -74.64595 | 39014 ft | 544 kts | 168° |
| 2026-05-05 00:24 | -20.84410 | -74.62341 | 39015 ft | 545 kts | 168° |
| 2026-05-05 00:25 | -20.91700 | -74.60082 | 39014 ft | 545 kts | 168° |
| 2026-05-05 00:25 | -20.98987 | -74.57821 | 39014 ft | 545 kts | 168° |
| 2026-05-05 00:26 | -21.06226 | -74.55573 | 39017 ft | 545 kts | 168° |
| 2026-05-05 00:26 | -21.13514 | -74.53308 | 39012 ft | 546 kts | 168° |
| 2026-05-05 00:27 | -21.20808 | -74.51040 | 39112 ft | 546 kts | 168° |
| 2026-05-05 00:27 | -21.28115 | -74.48763 | 39271 ft | 545 kts | 168° |
| 2026-05-05 00:28 | -21.35409 | -74.46486 | 39394 ft | 545 kts | 168° |
| 2026-05-05 00:28 | -21.42648 | -74.44226 | 39536 ft | 545 kts | 168° |
| 2026-05-05 00:29 | -21.49970 | -74.41937 | 39656 ft | 544 kts | 168° |
| 2026-05-05 00:29 | -21.57218 | -74.39669 | 39777 ft | 544 kts | 168° |
| 2026-05-05 00:30 | -21.64452 | -74.37404 | 39888 ft | 544 kts | 168° |
| 2026-05-05 00:30 | -21.71727 | -74.35123 | 40007 ft | 542 kts | 168° |
| 2026-05-05 00:30 | -21.75349 | -74.33986 | 40108 ft | 541 kts | 168° |
| 2026-05-05 00:31 | -21.78961 | -74.32851 | 40163 ft | 541 kts | 168° |
| 2026-05-05 00:31 | -21.86193 | -74.30580 | 40247 ft | 541 kts | 168° |
| 2026-05-05 00:32 | -21.92201 | -74.28692 | 40311 ft | 541 kts | 168° |
| 2026-05-05 00:32 | -22.00644 | -74.26034 | 40399 ft | 541 kts | 168° |
| 2026-05-05 00:33 | -22.07825 | -74.23771 | 40436 ft | 542 kts | 169° |
| 2026-05-05 00:33 | -22.13896 | -74.21856 | 40490 ft | 541 kts | 169° |
| 2026-05-05 00:34 | -22.21086 | -74.19585 | 40571 ft | 541 kts | 169° |
| 2026-05-05 00:34 | -22.28317 | -74.17299 | 40627 ft | 541 kts | 169° |
| 2026-05-05 00:35 | -22.35552 | -74.15009 | 40657 ft | 542 kts | 169° |
| 2026-05-05 00:35 | -22.42744 | -74.12731 | 40782 ft | 540 kts | 169° |
| 2026-05-05 00:35 | -22.46348 | -74.11587 | 40906 ft | 538 kts | 169° |
| 2026-05-05 00:36 | -22.49941 | -74.10446 | 41012 ft | 537 kts | 169° |
| 2026-05-05 00:36 | -22.57134 | -74.08164 | 41026 ft | 539 kts | 169° |
| 2026-05-05 00:37 | -22.64344 | -74.05874 | 41034 ft | 541 kts | 169° |
| 2026-05-05 00:37 | -22.71580 | -74.03572 | 41018 ft | 542 kts | 169° |
| 2026-05-05 00:38 | -22.78787 | -74.01276 | 41017 ft | 543 kts | 169° |
| 2026-05-05 00:38 | -22.86028 | -73.98966 | 41026 ft | 542 kts | 169° |
| 2026-05-05 00:39 | -22.93259 | -73.96656 | 41028 ft | 541 kts | 169° |
| 2026-05-05 00:39 | -23.00488 | -73.94346 | 41023 ft | 541 kts | 169° |
| 2026-05-05 00:40 | -23.07711 | -73.92036 | 41022 ft | 541 kts | 169° |
| 2026-05-05 00:40 | -23.14946 | -73.89718 | 41023 ft | 541 kts | 169° |
| 2026-05-05 00:41 | -23.22127 | -73.87416 | 41026 ft | 541 kts | 169° |
| 2026-05-05 00:41 | -23.29363 | -73.85092 | 41021 ft | 542 kts | 169° |
| 2026-05-05 00:42 | -23.36608 | -73.82765 | 41022 ft | 543 kts | 169° |
| 2026-05-05 00:42 | -23.43862 | -73.80430 | 41028 ft | 543 kts | 169° |
| 2026-05-05 00:43 | -23.51128 | -73.78089 | 41024 ft | 543 kts | 169° |
| 2026-05-05 00:43 | -23.58383 | -73.75748 | 41027 ft | 543 kts | 170° |
| 2026-05-05 00:44 | -23.65586 | -73.73423 | 41023 ft | 543 kts | 170° |
| 2026-05-05 00:44 | -23.72837 | -73.71079 | 41022 ft | 543 kts | 170° |
| 2026-05-05 00:45 | -23.80093 | -73.68731 | 41028 ft | 543 kts | 170° |
| 2026-05-05 00:45 | -23.87350 | -73.66380 | 41029 ft | 543 kts | 170° |
| 2026-05-05 00:46 | -23.94590 | -73.64031 | 41024 ft | 542 kts | 170° |
| 2026-05-05 00:46 | -24.01816 | -73.61684 | 41026 ft | 541 kts | 170° |
| 2026-05-05 00:47 | -24.08999 | -73.59356 | 41026 ft | 541 kts | 170° |
| 2026-05-05 00:47 | -24.16220 | -73.57010 | 41030 ft | 541 kts | 171° |
| 2026-05-05 00:48 | -24.23443 | -73.54661 | 41027 ft | 541 kts | 171° |
| 2026-05-05 00:48 | -24.30672 | -73.52308 | 41029 ft | 541 kts | 171° |
| 2026-05-05 00:49 | -24.37904 | -73.49952 | 41029 ft | 541 kts | 171° |
| 2026-05-05 00:49 | -24.45137 | -73.47591 | 41029 ft | 541 kts | 171° |
| 2026-05-05 00:50 | -24.52325 | -73.45243 | 41032 ft | 541 kts | 171° |
| 2026-05-05 00:50 | -24.59547 | -73.42881 | 41031 ft | 542 kts | 170° |
| 2026-05-05 00:51 | -24.66771 | -73.40515 | 41030 ft | 542 kts | 170° |
| 2026-05-05 00:51 | -24.74002 | -73.38144 | 41034 ft | 542 kts | 171° |
| 2026-05-05 00:52 | -24.81243 | -73.35768 | 41030 ft | 542 kts | 171° |
| 2026-05-05 00:52 | -24.88483 | -73.33388 | 41029 ft | 542 kts | 171° |
| 2026-05-05 00:53 | -24.95715 | -73.31008 | 41032 ft | 543 kts | 171° |
| 2026-05-05 00:53 | -25.02954 | -73.28622 | 41035 ft | 541 kts | 171° |
| 2026-05-05 00:54 | -25.10121 | -73.26256 | 41029 ft | 540 kts | 171° |
| 2026-05-05 00:54 | -25.17329 | -73.23876 | 41031 ft | 540 kts | 171° |
| 2026-05-05 00:55 | -25.24535 | -73.21495 | 41030 ft | 540 kts | 171° |
| 2026-05-05 00:55 | -25.31745 | -73.19108 | 41034 ft | 540 kts | 171° |
| 2026-05-05 00:56 | -25.38923 | -73.16728 | 41031 ft | 541 kts | 171° |
| 2026-05-05 00:56 | -25.46138 | -73.14334 | 41032 ft | 541 kts | 171° |
| 2026-05-05 00:57 | -25.53352 | -73.11936 | 41032 ft | 541 kts | 171° |
| 2026-05-05 00:57 | -25.60582 | -73.09529 | 41022 ft | 541 kts | 172° |
| 2026-05-05 00:58 | -25.67758 | -73.07138 | 41034 ft | 542 kts | 172° |
| 2026-05-05 00:58 | -25.74999 | -73.04723 | 41038 ft | 542 kts | 172° |
| 2026-05-05 00:59 | -25.82234 | -73.02307 | 41036 ft | 542 kts | 172° |
| 2026-05-05 00:59 | -25.89454 | -72.99891 | 41035 ft | 542 kts | 172° |
| 2026-05-05 01:00 | -25.96645 | -72.97483 | 41030 ft | 542 kts | 172° |
| 2026-05-05 01:00 | -26.03881 | -72.95057 | 41023 ft | 542 kts | 172° |
| 2026-05-05 01:01 | -26.11100 | -72.92632 | 41022 ft | 541 kts | 172° |
| 2026-05-05 01:01 | -26.18300 | -72.90211 | 41034 ft | 540 kts | 173° |
| 2026-05-05 01:02 | -26.25496 | -72.87789 | 41033 ft | 540 kts | 173° |
| 2026-05-05 01:02 | -26.32647 | -72.85380 | 41028 ft | 540 kts | 173° |
| 2026-05-05 01:03 | -26.39856 | -72.82948 | 41030 ft | 540 kts | 173° |
| 2026-05-05 01:03 | -26.47054 | -72.80515 | 41030 ft | 540 kts | 173° |
| 2026-05-05 01:04 | -26.54253 | -72.78079 | 41029 ft | 540 kts | 173° |
| 2026-05-05 01:04 | -26.65001 | -72.74437 | 41032 ft | 540 kts | 173° |
| 2026-05-05 01:05 | -26.72196 | -72.71994 | 41044 ft | 540 kts | 173° |
| 2026-05-05 01:05 | -26.79389 | -72.69549 | 41030 ft | 540 kts | 173° |
| 2026-05-05 01:06 | -26.86572 | -72.67104 | 41030 ft | 540 kts | 173° |
| 2026-05-05 01:06 | -26.93772 | -72.64650 | 41030 ft | 540 kts | 173° |
| 2026-05-05 01:07 | -27.00956 | -72.62198 | 41035 ft | 540 kts | 173° |
| 2026-05-05 01:07 | -27.08158 | -72.59736 | 41029 ft | 539 kts | 173° |
| 2026-05-05 01:08 | -27.15344 | -72.57276 | 41028 ft | 538 kts | 173° |
| 2026-05-05 01:08 | -27.22464 | -72.54837 | 41029 ft | 538 kts | 173° |
| 2026-05-05 01:09 | -27.29639 | -72.52376 | 41030 ft | 538 kts | 173° |
| 2026-05-05 01:09 | -27.36821 | -72.49909 | 41030 ft | 538 kts | 173° |
| 2026-05-05 01:10 | -27.43986 | -72.47444 | 41030 ft | 538 kts | 173° |
| 2026-05-05 01:10 | -27.51111 | -72.44989 | 41033 ft | 538 kts | 173° |
| 2026-05-05 01:11 | -27.58291 | -72.42518 | 41036 ft | 538 kts | 173° |
| 2026-05-05 01:11 | -27.65458 | -72.40052 | 41035 ft | 538 kts | 173° |
| 2026-05-05 01:12 | -27.72580 | -72.37598 | 41031 ft | 538 kts | 173° |
| 2026-05-05 01:12 | -27.79741 | -72.35128 | 41030 ft | 538 kts | 173° |
| 2026-05-05 01:13 | -27.86901 | -72.32654 | 41031 ft | 538 kts | 172° |
| 2026-05-05 01:13 | -27.94067 | -72.30174 | 41031 ft | 538 kts | 172° |
| 2026-05-05 01:14 | -28.01226 | -72.27694 | 41036 ft | 538 kts | 172° |
| 2026-05-05 01:14 | -28.08350 | -72.25222 | 41054 ft | 538 kts | 172° |
| 2026-05-05 01:15 | -28.15502 | -72.22736 | 41034 ft | 537 kts | 172° |
| 2026-05-05 01:15 | -28.22651 | -72.20249 | 41034 ft | 536 kts | 172° |
| 2026-05-05 01:16 | -28.28587 | -72.18181 | 41032 ft | 536 kts | 172° |
| 2026-05-05 01:16 | -28.35738 | -72.15687 | 41054 ft | 537 kts | 172° |
| 2026-05-05 01:17 | -28.42833 | -72.13209 | 41036 ft | 536 kts | 172° |
| 2026-05-05 01:17 | -28.49975 | -72.10711 | 41024 ft | 536 kts | 172° |
| 2026-05-05 01:18 | -28.57131 | -72.08199 | 41027 ft | 537 kts | 172° |
| 2026-05-05 01:18 | -28.64229 | -72.05693 | 41042 ft | 537 kts | 172° |
| 2026-05-05 01:19 | -28.71376 | -72.03167 | 41022 ft | 537 kts | 172° |
| 2026-05-05 01:19 | -28.78519 | -72.00640 | 41030 ft | 537 kts | 172° |
| 2026-05-05 01:20 | -28.85663 | -71.98111 | 41027 ft | 537 kts | 172° |
| 2026-05-05 01:20 | -28.92800 | -71.95581 | 41027 ft | 537 kts | 172° |
| 2026-05-05 01:21 | -28.99941 | -71.93045 | 41026 ft | 537 kts | 172° |
| 2026-05-05 01:21 | -29.07048 | -71.90518 | 41022 ft | 537 kts | 172° |
| 2026-05-05 01:22 | -29.14169 | -71.87980 | 41026 ft | 536 kts | 172° |
| 2026-05-05 01:22 | -29.21296 | -71.85439 | 41023 ft | 535 kts | 172° |
| 2026-05-05 01:23 | -29.28426 | -71.82894 | 41027 ft | 535 kts | 172° |
| 2026-05-05 01:23 | -29.35495 | -71.80366 | 41019 ft | 536 kts | 172° |
| 2026-05-05 01:24 | -29.42608 | -71.77818 | 41035 ft | 536 kts | 172° |
| 2026-05-05 01:24 | -29.49723 | -71.75269 | 41020 ft | 535 kts | 172° |
| 2026-05-05 01:25 | -29.56836 | -71.72739 | 41021 ft | 535 kts | 172° |
| 2026-05-05 01:25 | -29.63949 | -71.70210 | 41019 ft | 535 kts | 172° |
| 2026-05-05 01:26 | -29.71023 | -71.67691 | 41012 ft | 535 kts | 172° |
| 2026-05-05 01:26 | -29.78133 | -71.65152 | 41018 ft | 534 kts | 172° |
| 2026-05-05 01:27 | -29.85240 | -71.62610 | 41017 ft | 534 kts | 172° |
| 2026-05-05 01:27 | -29.92346 | -71.60065 | 41014 ft | 534 kts | 172° |
| 2026-05-05 01:28 | -29.99454 | -71.57516 | 41018 ft | 534 kts | 172° |
| 2026-05-05 01:28 | -30.06565 | -71.54962 | 41011 ft | 534 kts | 172° |
| 2026-05-05 01:29 | -30.13619 | -71.52424 | 41013 ft | 534 kts | 172° |
| 2026-05-05 01:29 | -30.20718 | -71.49866 | 41025 ft | 534 kts | 172° |
| 2026-05-05 01:30 | -30.27754 | -71.47138 | 41012 ft | 542 kts | 165° |
| 2026-05-05 01:30 | -30.34625 | -71.43408 | 41015 ft | 546 kts | 162° |
| 2026-05-05 01:31 | -30.41444 | -71.39474 | 41018 ft | 547 kts | 162° |
| 2026-05-05 01:31 | -30.48268 | -71.35498 | 41012 ft | 547 kts | 162° |
| 2026-05-05 01:32 | -30.55041 | -71.31563 | 41014 ft | 546 kts | 162° |
| 2026-05-05 01:32 | -30.61845 | -71.27621 | 41015 ft | 546 kts | 162° |
| 2026-05-05 01:33 | -30.68662 | -71.23670 | 41046 ft | 546 kts | 162° |
| 2026-05-05 01:33 | -30.75464 | -71.19720 | 41012 ft | 546 kts | 162° |
| 2026-05-05 01:34 | -30.82267 | -71.15759 | 41009 ft | 546 kts | 162° |
| 2026-05-05 01:34 | -30.89026 | -71.11826 | 41018 ft | 547 kts | 162° |
| 2026-05-05 01:35 | -30.95792 | -71.07873 | 40702 ft | 537 kts | 162° |
| 2026-05-05 01:35 | -30.99126 | -71.05916 | 40451 ft | 535 kts | 162° |
| 2026-05-05 01:35 | -31.02457 | -71.03965 | 40222 ft | 535 kts | 162° |
| 2026-05-05 01:36 | -31.05782 | -71.02019 | 39687 ft | 534 kts | 162° |
| 2026-05-05 01:36 | -31.09102 | -71.00076 | 39052 ft | 534 kts | 162° |
| 2026-05-05 01:36 | -31.12426 | -70.98128 | 38364 ft | 534 kts | 162° |
| 2026-05-05 01:36 | -31.15704 | -70.96208 | 37693 ft | 534 kts | 162° |
| 2026-05-05 01:37 | -31.19028 | -70.94259 | 37049 ft | 533 kts | 161° |
| 2026-05-05 01:37 | -31.22348 | -70.92311 | 36370 ft | 534 kts | 161° |
| 2026-05-05 01:37 | -31.25666 | -70.90359 | 35690 ft | 533 kts | 161° |
| 2026-05-05 01:37 | -31.28979 | -70.88408 | 34995 ft | 531 kts | 161° |
| 2026-05-05 01:38 | -31.32347 | -70.86738 | 34238 ft | 517 kts | 172° |
| 2026-05-05 01:38 | -31.35787 | -70.85983 | 33404 ft | 502 kts | 185° |
| 2026-05-05 01:38 | -31.39304 | -70.85805 | 32628 ft | 496 kts | 188° |
| 2026-05-05 01:38 | -31.42760 | -70.85733 | 31894 ft | 496 kts | 188° |
| 2026-05-05 01:39 | -31.46221 | -70.85682 | 31097 ft | 498 kts | 188° |
| 2026-05-05 01:39 | -31.49698 | -70.85636 | 30298 ft | 500 kts | 188° |
| 2026-05-05 01:39 | -31.53181 | -70.85589 | 29505 ft | 500 kts | 188° |
| 2026-05-05 01:39 | -31.56610 | -70.85542 | 28889 ft | 496 kts | 187° |
| 2026-05-05 01:40 | -31.60043 | -70.85495 | 28284 ft | 491 kts | 187° |
| 2026-05-05 01:40 | -31.63457 | -70.85451 | 27704 ft | 487 kts | 187° |
| 2026-05-05 01:40 | -31.66831 | -70.85407 | 27124 ft | 483 kts | 187° |
| 2026-05-05 01:40 | -31.70174 | -70.85362 | 26557 ft | 479 kts | 187° |
| 2026-05-05 01:41 | -31.73486 | -70.85316 | 25991 ft | 472 kts | 186° |
| 2026-05-05 01:41 | -31.76769 | -70.85273 | 25382 ft | 470 kts | 186° |
| 2026-05-05 01:41 | -31.80032 | -70.85170 | 24748 ft | 468 kts | 185° |
| 2026-05-05 01:41 | -31.83280 | -70.85040 | 24155 ft | 466 kts | 184° |
| 2026-05-05 01:42 | -31.86513 | -70.84915 | 23550 ft | 463 kts | 184° |
| 2026-05-05 01:42 | -31.89720 | -70.84794 | 22884 ft | 459 kts | 184° |
| 2026-05-05 01:42 | -31.92853 | -70.84679 | 22294 ft | 454 kts | 184° |
| 2026-05-05 01:42 | -31.95998 | -70.84566 | 21710 ft | 450 kts | 184° |
| 2026-05-05 01:43 | -31.99118 | -70.84453 | 21123 ft | 446 kts | 183° |
| 2026-05-05 01:43 | -32.02209 | -70.84343 | 20530 ft | 443 kts | 183° |
| 2026-05-05 01:43 | -32.05280 | -70.84236 | 19934 ft | 439 kts | 183° |
| 2026-05-05 01:43 | -32.08325 | -70.84130 | 19343 ft | 435 kts | 182° |
| 2026-05-05 01:44 | -32.11339 | -70.84022 | 18807 ft | 431 kts | 182° |
| 2026-05-05 01:44 | -32.14283 | -70.83912 | 18651 ft | 415 kts | 182° |
| 2026-05-05 01:44 | -32.17082 | -70.83806 | 18543 ft | 400 kts | 183° |
| 2026-05-05 01:44 | -32.19821 | -70.83698 | 18383 ft | 386 kts | 183° |
| 2026-05-05 01:45 | -32.22466 | -70.83602 | 18204 ft | 374 kts | 183° |
| 2026-05-05 01:45 | -32.25055 | -70.83513 | 17820 ft | 370 kts | 183° |
| 2026-05-05 01:45 | -32.27630 | -70.83421 | 17336 ft | 369 kts | 182° |
| 2026-05-05 01:45 | -32.30190 | -70.83330 | 16904 ft | 366 kts | 183° |
| 2026-05-05 01:46 | -32.32725 | -70.83243 | 16497 ft | 363 kts | 182° |
| 2026-05-05 01:46 | -32.35241 | -70.83156 | 16086 ft | 361 kts | 182° |
| 2026-05-05 01:46 | -32.37749 | -70.83068 | 15676 ft | 359 kts | 182° |
| 2026-05-05 01:46 | -32.40236 | -70.82980 | 15274 ft | 357 kts | 182° |
| 2026-05-05 01:47 | -32.42719 | -70.82891 | 14873 ft | 356 kts | 182° |
| 2026-05-05 01:47 | -32.45192 | -70.82803 | 14473 ft | 354 kts | 182° |
| 2026-05-05 01:47 | -32.47655 | -70.82714 | 14079 ft | 352 kts | 181° |
| 2026-05-05 01:47 | -32.50096 | -70.82626 | 13662 ft | 350 kts | 181° |
| 2026-05-05 01:48 | -32.52513 | -70.82541 | 13251 ft | 345 kts | 181° |
| 2026-05-05 01:48 | -32.54864 | -70.82456 | 12885 ft | 341 kts | 181° |
| 2026-05-05 01:48 | -32.57230 | -70.82369 | 12491 ft | 339 kts | 181° |
| 2026-05-05 01:48 | -32.59583 | -70.82284 | 12089 ft | 338 kts | 181° |
| 2026-05-05 01:49 | -32.61901 | -70.82199 | 11936 ft | 327 kts | 180° |
| 2026-05-05 01:49 | -32.64141 | -70.82116 | 11808 ft | 316 kts | 181° |
| 2026-05-05 01:49 | -32.66289 | -70.82038 | 11649 ft | 300 kts | 181° |
| 2026-05-05 01:49 | -32.68318 | -70.81967 | 11528 ft | 285 kts | 181° |
| 2026-05-05 01:50 | -32.70259 | -70.81894 | 11344 ft | 275 kts | 181° |
| 2026-05-05 01:50 | -32.72153 | -70.81822 | 11107 ft | 270 kts | 181° |
| 2026-05-05 01:50 | -32.74017 | -70.81754 | 10857 ft | 267 kts | 181° |
| 2026-05-05 01:50 | -32.75876 | -70.81682 | 10595 ft | 267 kts | 180° |
| 2026-05-05 01:51 | -32.77733 | -70.81616 | 10322 ft | 266 kts | 180° |
| 2026-05-05 01:51 | -32.79587 | -70.81554 | 10064 ft | 266 kts | 180° |
| 2026-05-05 01:51 | -32.81422 | -70.81491 | 9835 ft | 273 kts | 180° |
| 2026-05-05 01:51 | -32.83364 | -70.81423 | 9742 ft | 283 kts | 180° |
| 2026-05-05 01:52 | -32.85327 | -70.81352 | 9482 ft | 282 kts | 180° |
| 2026-05-05 01:52 | -32.87302 | -70.81281 | 9038 ft | 283 kts | 179° |
| 2026-05-05 01:52 | -32.89260 | -70.81210 | 8723 ft | 281 kts | 179° |
| 2026-05-05 01:52 | -32.91210 | -70.81139 | 8452 ft | 279 kts | 179° |
| 2026-05-05 01:53 | -32.93143 | -70.81066 | 8180 ft | 278 kts | 179° |
| 2026-05-05 01:53 | -32.95047 | -70.80965 | 7917 ft | 276 kts | 178° |
| 2026-05-05 01:53 | -32.96964 | -70.80855 | 7656 ft | 275 kts | 178° |
| 2026-05-05 01:53 | -32.98877 | -70.80748 | 7408 ft | 275 kts | 178° |
| 2026-05-05 01:54 | -33.00786 | -70.80646 | 7166 ft | 273 kts | 178° |
| 2026-05-05 01:54 | -33.02686 | -70.80539 | 6940 ft | 273 kts | 178° |
| 2026-05-05 01:54 | -33.04579 | -70.80428 | 6737 ft | 273 kts | 178° |
| 2026-05-05 01:54 | -33.06476 | -70.80311 | 6547 ft | 272 kts | 178° |
| 2026-05-05 01:55 | -33.08342 | -70.80212 | 6370 ft | 264 kts | 179° |
| 2026-05-05 01:55 | -33.10147 | -70.80139 | 6227 ft | 253 kts | 179° |
| 2026-05-05 01:55 | -33.11870 | -70.80061 | 6109 ft | 243 kts | 178° |
| 2026-05-05 01:55 | -33.13517 | -70.79978 | 6022 ft | 230 kts | 178° |
| 2026-05-05 01:56 | -33.15061 | -70.79889 | 5986 ft | 216 kts | 178° |
| 2026-05-05 01:56 | -33.16508 | -70.79806 | 5869 ft | 205 kts | 178° |
| 2026-05-05 01:56 | -33.17906 | -70.79740 | 5691 ft | 197 kts | 178° |
| 2026-05-05 01:56 | -33.19260 | -70.79676 | 5447 ft | 192 kts | 178° |
| 2026-05-05 01:57 | -33.20580 | -70.79588 | 5179 ft | 189 kts | 176° |
| 2026-05-05 01:57 | -33.21896 | -70.79490 | 4867 ft | 189 kts | 177° |
| 2026-05-05 01:57 | -33.23199 | -70.79420 | 4539 ft | 190 kts | 178° |
| 2026-05-05 01:57 | -33.24533 | -70.79371 | 4219 ft | 190 kts | 179° |
| 2026-05-05 01:58 | -33.25831 | -70.79329 | 3922 ft | 187 kts | 179° |
| 2026-05-05 01:58 | -33.27124 | -70.79290 | 3654 ft | 179 kts | 178° |
| 2026-05-05 01:58 | -33.28309 | -70.79206 | 3448 ft | 168 kts | 175° |
| 2026-05-05 01:58 | -33.29448 | -70.79093 | 3200 ft | 161 kts | 174° |
| 2026-05-05 01:59 | -33.30544 | -70.79004 | 2949 ft | 154 kts | 177° |
| 2026-05-05 01:59 | -33.31586 | -70.78961 | 2749 ft | 147 kts | 179° |
| 2026-05-05 01:59 | -33.32600 | -70.78922 | 2578 ft | 145 kts | 178° |
| 2026-05-05 01:59 | -33.33285 | -70.78896 | 2481 ft | 146 kts | 179° |
| 2026-05-05 02:00 | -33.34290 | -70.78849 | 2276 ft | 146 kts | 178° |
| 2026-05-05 02:00 | -33.35299 | -70.78799 | 2074 ft | 145 kts | 178° |
| 2026-05-05 02:00 | -33.36303 | -70.78742 | 1862 ft | 143 kts | 178° |
| 2026-05-05 02:00 | -33.37303 | -70.78685 | 1685 ft | 143 kts | 178° |
| 2026-05-05 02:01 | -33.38288 | -70.78636 | 1572 ft | 136 kts | 178° |
| 2026-05-05 02:01 | -33.39086 | -70.78591 | 1570 ft | 80 kts | 177° |
| 2026-05-05 02:01 | -33.39398 | -70.78580 | 1570 ft | 30 kts | 183° |
| 2026-05-05 02:01 | -33.39592 | -70.78638 | 1570 ft | 28 kts | 205° |
| 2026-05-05 02:02 | -33.39726 | -70.78725 | 1572 ft | 14 kts | 225° |
| 2026-05-05 02:02 | -33.39748 | -70.78838 | 1571 ft | 14 kts | 275° |
| 2026-05-05 02:02 | -33.39677 | -70.78883 | 1571 ft | 13 kts | 358° |
| 2026-05-05 02:02 | -33.39578 | -70.78887 | 1571 ft | 15 kts | 358° |
| 2026-05-05 02:03 | -33.39466 | -70.78893 | 1571 ft | 17 kts | 356° |
| 2026-05-05 02:03 | -33.39363 | -70.78899 | 1570 ft | 11 kts | 357° |
| 2026-05-05 02:03 | -33.39311 | -70.78938 | 1570 ft | 9 kts | 283° |
| 2026-05-05 02:03 | -33.39310 | -70.79022 | 1571 ft | 11 kts | 269° |
| 2026-05-05 02:04 | -33.39313 | -70.79121 | 1571 ft | 13 kts | 268° |
| 2026-05-05 02:04 | -33.39317 | -70.79236 | 1571 ft | 15 kts | 267° |
| 2026-05-05 02:04 | -33.39322 | -70.79364 | 1571 ft | 16 kts | 267° |
| 2026-05-05 02:04 | -33.39327 | -70.79506 | 1571 ft | 18 kts | 267° |
| 2026-05-05 02:05 | -33.39334 | -70.79659 | 1571 ft | 19 kts | 267° |
| 2026-05-05 02:05 | -33.39341 | -70.79809 | 1571 ft | 14 kts | 267° |
| 2026-05-05 02:05 | -33.39343 | -70.79917 | 1571 ft | 10 kts | 265° |
| 2026-05-05 02:05 | -33.39393 | -70.79947 | 1571 ft | 9 kts | 181° |
| 2026-05-05 02:06 | -33.39465 | -70.79945 | 1571 ft | 11 kts | 177° |
| 2026-05-05 02:06 | -33.39552 | -70.79939 | 1571 ft | 14 kts | 177° |
| 2026-05-05 02:06 | -33.39655 | -70.79934 | 1571 ft | 16 kts | 178° |
| 2026-05-05 02:06 | -33.39771 | -70.79928 | 1571 ft | 18 kts | 177° |
| 2026-05-05 02:07 | -33.39899 | -70.79919 | 1571 ft | 19 kts | 176° |
| 2026-05-05 02:07 | -33.40037 | -70.79908 | 1571 ft | 20 kts | 176° |
| 2026-05-05 02:07 | -33.40145 | -70.79897 | 1571 ft | 7 kts | 162° |
| 2026-05-05 02:07 | -33.40160 | -70.79850 | 1571 ft | 7 kts | 92° |
| 2026-05-05 02:08 | -33.40160 | -70.79779 | 1571 ft | 10 kts | 88° |
| 2026-05-05 02:08 | -33.40167 | -70.79709 | 1571 ft | 4 kts | 128° |
| 2026-05-05 02:08 | -33.40191 | -70.79702 | 1571 ft | 5 kts | 174° |
| 2026-05-05 02:08 | -33.40223 | -70.79700 | 1571 ft | 3 kts | 176° |
| 2026-05-05 02:09 | -33.40235 | -70.79699 | 1571 ft | 0 kts | 177° |